<?xml version='1.0' encoding='UTF-8'?><gpx version="1.1" creator="JPX - https://github.com/jenetics/jpx" xmlns="http://www.topografix.com/GPX/1/1"><trk><trkseg><trkpt lat="45.75947" lon="8.9683617"><ele>381.8571428571429</ele><time>2026-03-28T07:37:12.227Z</time></trkpt><trkpt lat="45.7594717" lon="8.9682633"><ele>381.71428571428567</ele><time>2026-03-28T07:40:32.229Z</time></trkpt><trkpt lat="45.7594168" lon="8.9682068"><ele>381.57142857142856</ele><time>2026-03-28T07:40:41.298Z</time></trkpt><trkpt lat="45.7594808" lon="8.968235"><ele>381.42857142857144</ele><time>2026-03-28T07:40:55.325Z</time></trkpt><trkpt lat="45.759421" lon="8.9682"><ele>381.28571428571433</ele><time>2026-03-28T07:42:05.222Z</time></trkpt><trkpt lat="45.7593505" lon="8.9682306"><ele>381.1428571428571</ele><time>2026-03-28T07:42:10.25Z</time></trkpt><trkpt lat="45.7592823" lon="8.9682617"><ele>381.0</ele><time>2026-03-28T07:42:14.24Z</time></trkpt><trkpt lat="45.7592196" lon="8.9682954"><ele>381.0</ele><time>2026-03-28T07:42:18.335Z</time></trkpt><trkpt lat="45.7591502" lon="8.9683127"><ele>381.0</ele><time>2026-03-28T07:42:23.27Z</time></trkpt><trkpt lat="45.7590779" lon="8.9683412"><ele>381.0</ele><time>2026-03-28T07:42:29.255Z</time></trkpt><trkpt lat="45.7590174" lon="8.9683876"><ele>381.0</ele><time>2026-03-28T07:42:34.295Z</time></trkpt><trkpt lat="45.7589553" lon="8.9684426"><ele>381.0</ele><time>2026-03-28T07:42:39.335Z</time></trkpt><trkpt lat="45.7588974" lon="8.9685001"><ele>381.0</ele><time>2026-03-28T07:42:46.123Z</time></trkpt><trkpt lat="45.7588254" lon="8.9685258"><ele>381.0</ele><time>2026-03-28T07:42:52.249Z</time></trkpt><trkpt lat="45.758757" lon="8.9685481"><ele>380.57142857142856</ele><time>2026-03-28T07:42:56.239Z</time></trkpt><trkpt lat="45.7586916" lon="8.9685767"><ele>380.14285714285717</ele><time>2026-03-28T07:43:00.334Z</time></trkpt><trkpt lat="45.7586112" lon="8.9685952"><ele>379.7142857142857</ele><time>2026-03-28T07:43:04.344Z</time></trkpt><trkpt lat="45.7585381" lon="8.9686143"><ele>379.2857142857143</ele><time>2026-03-28T07:43:08.219Z</time></trkpt><trkpt lat="45.7584711" lon="8.9686406"><ele>378.8571428571429</ele><time>2026-03-28T07:43:13.126Z</time></trkpt><trkpt lat="45.7583986" lon="8.968644"><ele>378.42857142857144</ele><time>2026-03-28T07:43:18.079Z</time></trkpt><trkpt lat="45.7583217" lon="8.9686472"><ele>378.0</ele><time>2026-03-28T07:43:21.995Z</time></trkpt><trkpt lat="45.7582557" lon="8.9686456"><ele>377.2857142857143</ele><time>2026-03-28T07:43:26.058Z</time></trkpt><trkpt lat="45.7581806" lon="8.9686395"><ele>376.57142857142856</ele><time>2026-03-28T07:43:32.253Z</time></trkpt><trkpt lat="45.7581112" lon="8.9686245"><ele>375.8571428571429</ele><time>2026-03-28T07:43:39.318Z</time></trkpt><trkpt lat="45.758051" lon="8.9685949"><ele>375.1428571428571</ele><time>2026-03-28T07:43:45.322Z</time></trkpt><trkpt lat="45.7579877" lon="8.9685829"><ele>374.42857142857144</ele><time>2026-03-28T07:43:49.207Z</time></trkpt><trkpt lat="45.7579172" lon="8.9685663"><ele>373.7142857142857</ele><time>2026-03-28T07:43:53.252Z</time></trkpt><trkpt lat="45.7578472" lon="8.9685541"><ele>373.0</ele><time>2026-03-28T07:43:58.292Z</time></trkpt><trkpt lat="45.7577777" lon="8.9685203"><ele>373.0</ele><time>2026-03-28T07:44:04.298Z</time></trkpt><trkpt lat="45.7577372" lon="8.9684231"><ele>373.0</ele><time>2026-03-28T07:44:09.166Z</time></trkpt><trkpt lat="45.7577266" lon="8.9683098"><ele>373.0</ele><time>2026-03-28T07:44:14.043Z</time></trkpt><trkpt lat="45.7577229" lon="8.9682125"><ele>373.0</ele><time>2026-03-28T07:44:17.987Z</time></trkpt><trkpt lat="45.757711" lon="8.9681135"><ele>373.0</ele><time>2026-03-28T07:44:20.907Z</time></trkpt><trkpt lat="45.7577001" lon="8.968023"><ele>373.0</ele><time>2026-03-28T07:44:23.867Z</time></trkpt><trkpt lat="45.7576879" lon="8.967913"><ele>373.0</ele><time>2026-03-28T07:44:27.741Z</time></trkpt><trkpt lat="45.7576981" lon="8.9678227"><ele>373.7142857142857</ele><time>2026-03-28T07:44:31.645Z</time></trkpt><trkpt lat="45.7577116" lon="8.967717"><ele>374.42857142857144</ele><time>2026-03-28T07:44:36.504Z</time></trkpt><trkpt lat="45.7576869" lon="8.967616"><ele>375.1428571428571</ele><time>2026-03-28T07:44:40.426Z</time></trkpt><trkpt lat="45.7576709" lon="8.9675234"><ele>375.8571428571429</ele><time>2026-03-28T07:44:44.302Z</time></trkpt><trkpt lat="45.7576703" lon="8.9674302"><ele>376.57142857142856</ele><time>2026-03-28T07:44:49.161Z</time></trkpt><trkpt lat="45.7576689" lon="8.9673205"><ele>377.2857142857143</ele><time>2026-03-28T07:44:54.995Z</time></trkpt><trkpt lat="45.7576616" lon="8.9672244"><ele>378.0</ele><time>2026-03-28T07:44:59.297Z</time></trkpt><trkpt lat="45.7576488" lon="8.9671262"><ele>378.2857142857143</ele><time>2026-03-28T07:45:03.182Z</time></trkpt><trkpt lat="45.7576246" lon="8.9670246"><ele>378.57142857142856</ele><time>2026-03-28T07:45:08.003Z</time></trkpt><trkpt lat="45.7575694" lon="8.9669472"><ele>378.8571428571429</ele><time>2026-03-28T07:45:14.31Z</time></trkpt><trkpt lat="45.7575255" lon="8.966881"><ele>379.1428571428571</ele><time>2026-03-28T07:45:20.295Z</time></trkpt><trkpt lat="45.7574611" lon="8.9668333"><ele>379.42857142857144</ele><time>2026-03-28T07:45:25.335Z</time></trkpt><trkpt lat="45.7574351" lon="8.9667494"><ele>379.7142857142857</ele><time>2026-03-28T07:45:30.061Z</time></trkpt><trkpt lat="45.757449" lon="8.9666498"><ele>380.0</ele><time>2026-03-28T07:45:34.85Z</time></trkpt><trkpt lat="45.7575074" lon="8.9666062"><ele>380.14285714285717</ele><time>2026-03-28T07:45:38.687Z</time></trkpt><trkpt lat="45.757573" lon="8.9665966"><ele>380.28571428571433</ele><time>2026-03-28T07:45:44.599Z</time></trkpt><trkpt lat="45.7576305" lon="8.9665524"><ele>380.42857142857144</ele><time>2026-03-28T07:45:49.619Z</time></trkpt><trkpt lat="45.7576483" lon="8.966465"><ele>380.57142857142856</ele><time>2026-03-28T07:45:55.099Z</time></trkpt><trkpt lat="45.7576964" lon="8.9664057"><ele>380.7142857142857</ele><time>2026-03-28T07:46:05.233Z</time></trkpt><trkpt lat="45.7577085" lon="8.9663154"><ele>380.85714285714283</ele><time>2026-03-28T07:46:12.268Z</time></trkpt><trkpt lat="45.7577231" lon="8.9662223"><ele>381.0</ele><time>2026-03-28T07:46:19.238Z</time></trkpt><trkpt lat="45.7577306" lon="8.9661214"><ele>381.0</ele><time>2026-03-28T07:46:26.206Z</time></trkpt><trkpt lat="45.7577402" lon="8.9660246"><ele>381.0</ele><time>2026-03-28T07:46:32.322Z</time></trkpt><trkpt lat="45.7577136" lon="8.9659235"><ele>381.0</ele><time>2026-03-28T07:46:38.307Z</time></trkpt><trkpt lat="45.757721" lon="8.9658323"><ele>381.0</ele><time>2026-03-28T07:46:43.243Z</time></trkpt><trkpt lat="45.7577316" lon="8.9657315"><ele>381.0</ele><time>2026-03-28T07:46:51.326Z</time></trkpt><trkpt lat="45.7577326" lon="8.9656317"><ele>381.0</ele><time>2026-03-28T07:46:56.262Z</time></trkpt><trkpt lat="45.7577132" lon="8.9655438"><ele>381.0</ele><time>2026-03-28T07:47:01.301Z</time></trkpt><trkpt lat="45.7577649" lon="8.9654491"><ele>381.8333333333333</ele><time>2026-03-28T07:47:02.246Z</time></trkpt><trkpt lat="45.7578057" lon="8.9653383"><ele>382.66666666666663</ele><time>2026-03-28T07:47:04.346Z</time></trkpt><trkpt lat="45.7578074" lon="8.9652336"><ele>383.5</ele><time>2026-03-28T07:47:09.28Z</time></trkpt><trkpt lat="45.7577484" lon="8.9652014"><ele>384.3333333333333</ele><time>2026-03-28T07:47:19.255Z</time></trkpt><trkpt lat="45.7576792" lon="8.9652889"><ele>385.16666666666663</ele><time>2026-03-28T07:47:22.3Z</time></trkpt><trkpt lat="45.7576252" lon="8.9653522"><ele>386.0</ele><time>2026-03-28T07:47:27.235Z</time></trkpt><trkpt lat="45.7575668" lon="8.9653987"><ele>386.5714285714286</ele><time>2026-03-28T07:47:32.274Z</time></trkpt><trkpt lat="45.7575023" lon="8.9654176"><ele>387.14285714285717</ele><time>2026-03-28T07:47:37.22Z</time></trkpt><trkpt lat="45.7574518" lon="8.9654864"><ele>387.7142857142857</ele><time>2026-03-28T07:47:41.325Z</time></trkpt><trkpt lat="45.7573986" lon="8.9655392"><ele>388.28571428571433</ele><time>2026-03-28T07:47:47.338Z</time></trkpt><trkpt lat="45.7573482" lon="8.9654494"><ele>388.85714285714283</ele><time>2026-03-28T07:47:48.302Z</time></trkpt><trkpt lat="45.7572901" lon="8.9654068"><ele>389.42857142857144</ele><time>2026-03-28T07:47:50.333Z</time></trkpt><trkpt lat="45.7572291" lon="8.9653719"><ele>390.0</ele><time>2026-03-28T07:47:53.342Z</time></trkpt><trkpt lat="45.7571854" lon="8.9653061"><ele>390.0</ele><time>2026-03-28T07:47:57.263Z</time></trkpt><trkpt lat="45.7571458" lon="8.9652205"><ele>390.0</ele><time>2026-03-28T07:48:01.253Z</time></trkpt><trkpt lat="45.7571042" lon="8.9651406"><ele>390.0</ele><time>2026-03-28T07:48:05.243Z</time></trkpt><trkpt lat="45.7569984" lon="8.9652474"><ele>390.0</ele><time>2026-03-28T07:48:06.198Z</time></trkpt><trkpt lat="45.7569379" lon="8.9652862"><ele>390.0</ele><time>2026-03-28T07:48:08.184Z</time></trkpt><trkpt lat="45.7569176" lon="8.9651909"><ele>390.0</ele><time>2026-03-28T07:48:13.224Z</time></trkpt><trkpt lat="45.7568969" lon="8.9650746"><ele>390.2857142857143</ele><time>2026-03-28T07:48:16.328Z</time></trkpt><trkpt lat="45.7569065" lon="8.9649717"><ele>390.57142857142856</ele><time>2026-03-28T07:48:23.342Z</time></trkpt><trkpt lat="45.7568559" lon="8.9649084"><ele>390.8571428571429</ele><time>2026-03-28T07:48:28.305Z</time></trkpt><trkpt lat="45.7568269" lon="8.9648228"><ele>391.1428571428571</ele><time>2026-03-28T07:48:33.345Z</time></trkpt><trkpt lat="45.7567811" lon="8.9647381"><ele>391.42857142857144</ele><time>2026-03-28T07:48:38.347Z</time></trkpt><trkpt lat="45.7567364" lon="8.9646686"><ele>391.7142857142857</ele><time>2026-03-28T07:48:42.305Z</time></trkpt><trkpt lat="45.7566719" lon="8.9646752"><ele>392.0</ele><time>2026-03-28T07:48:48.29Z</time></trkpt><trkpt lat="45.7566079" lon="8.9647145"><ele>391.2857142857143</ele><time>2026-03-28T07:48:55.165Z</time></trkpt><trkpt lat="45.7565361" lon="8.964722"><ele>390.57142857142856</ele><time>2026-03-28T07:49:01.309Z</time></trkpt><trkpt lat="45.7564552" lon="8.9647525"><ele>389.8571428571429</ele><time>2026-03-28T07:49:06.244Z</time></trkpt><trkpt lat="45.7563854" lon="8.9648015"><ele>389.1428571428571</ele><time>2026-03-28T07:49:11.268Z</time></trkpt><trkpt lat="45.7563411" lon="8.9648664"><ele>388.42857142857144</ele><time>2026-03-28T07:49:15.274Z</time></trkpt><trkpt lat="45.7562936" lon="8.9649429"><ele>387.7142857142857</ele><time>2026-03-28T07:49:19.229Z</time></trkpt><trkpt lat="45.7562348" lon="8.9650141"><ele>387.0</ele><time>2026-03-28T07:49:24.303Z</time></trkpt><trkpt lat="45.7561905" lon="8.9650856"><ele>386.7142857142857</ele><time>2026-03-28T07:49:29.343Z</time></trkpt><trkpt lat="45.7561442" lon="8.9651525"><ele>386.42857142857144</ele><time>2026-03-28T07:49:33.326Z</time></trkpt><trkpt lat="45.7560916" lon="8.9652035"><ele>386.1428571428571</ele><time>2026-03-28T07:49:37.322Z</time></trkpt><trkpt lat="45.7560246" lon="8.965249"><ele>385.8571428571429</ele><time>2026-03-28T07:49:41.312Z</time></trkpt><trkpt lat="45.7559609" lon="8.9652769"><ele>385.57142857142856</ele><time>2026-03-28T07:49:46.247Z</time></trkpt><trkpt lat="45.7558852" lon="8.965316"><ele>385.2857142857143</ele><time>2026-03-28T07:49:51.286Z</time></trkpt><trkpt lat="45.7558218" lon="8.9653512"><ele>385.0</ele><time>2026-03-28T07:49:55.276Z</time></trkpt><trkpt lat="45.7557578" lon="8.9653961"><ele>384.85714285714283</ele><time>2026-03-28T07:49:59.363Z</time></trkpt><trkpt lat="45.7556856" lon="8.9654193"><ele>384.7142857142857</ele><time>2026-03-28T07:50:03.254Z</time></trkpt><trkpt lat="45.7556221" lon="8.9654213"><ele>384.57142857142856</ele><time>2026-03-28T07:50:07.245Z</time></trkpt><trkpt lat="45.7555496" lon="8.9654191"><ele>384.42857142857144</ele><time>2026-03-28T07:50:13.335Z</time></trkpt><trkpt lat="45.755479" lon="8.9654237"><ele>384.2857142857143</ele><time>2026-03-28T07:50:19.319Z</time></trkpt><trkpt lat="45.7554152" lon="8.965402"><ele>384.1428571428571</ele><time>2026-03-28T07:50:24.254Z</time></trkpt><trkpt lat="45.7553518" lon="8.9653474"><ele>384.0</ele><time>2026-03-28T07:50:31.288Z</time></trkpt><trkpt lat="45.7552877" lon="8.9653301"><ele>383.99999999999994</ele><time>2026-03-28T07:50:37.273Z</time></trkpt><trkpt lat="45.7552597" lon="8.9652487"><ele>384.0</ele><time>2026-03-28T07:50:48.296Z</time></trkpt><trkpt lat="45.7551932" lon="8.9652202"><ele>384.0</ele><time>2026-03-28T07:50:55.324Z</time></trkpt><trkpt lat="45.7551204" lon="8.9652565"><ele>384.0</ele><time>2026-03-28T07:51:02.345Z</time></trkpt><trkpt lat="45.7550676" lon="8.9653108"><ele>384.0</ele><time>2026-03-28T07:51:07.301Z</time></trkpt><trkpt lat="45.7550185" lon="8.9653797"><ele>383.99999999999994</ele><time>2026-03-28T07:51:12.34Z</time></trkpt><trkpt lat="45.7549718" lon="8.9654516"><ele>384.0</ele><time>2026-03-28T07:51:16.33Z</time></trkpt><trkpt lat="45.7549239" lon="8.9655346"><ele>383.85714285714283</ele><time>2026-03-28T07:51:21.265Z</time></trkpt><trkpt lat="45.7548326" lon="8.9655936"><ele>383.7142857142857</ele><time>2026-03-28T07:51:26.305Z</time></trkpt><trkpt lat="45.7547674" lon="8.9656407"><ele>383.57142857142856</ele><time>2026-03-28T07:51:30.295Z</time></trkpt><trkpt lat="45.7547221" lon="8.9657178"><ele>383.42857142857144</ele><time>2026-03-28T07:51:36.137Z</time></trkpt><trkpt lat="45.7546895" lon="8.9657975"><ele>383.2857142857143</ele><time>2026-03-28T07:51:42.267Z</time></trkpt><trkpt lat="45.7546317" lon="8.9658522"><ele>383.1428571428571</ele><time>2026-03-28T07:51:50.244Z</time></trkpt><trkpt lat="45.7545813" lon="8.9659254"><ele>383.0</ele><time>2026-03-28T07:51:54.234Z</time></trkpt><trkpt lat="45.7545319" lon="8.9659922"><ele>382.7142857142857</ele><time>2026-03-28T07:51:58.329Z</time></trkpt><trkpt lat="45.754482" lon="8.9660661"><ele>382.42857142857144</ele><time>2026-03-28T07:52:03.264Z</time></trkpt><trkpt lat="45.7544881" lon="8.9661864"><ele>382.1428571428571</ele><time>2026-03-28T07:52:09.248Z</time></trkpt><trkpt lat="45.7544442" lon="8.9662595"><ele>381.8571428571429</ele><time>2026-03-28T07:52:14.288Z</time></trkpt><trkpt lat="45.7543762" lon="8.9662609"><ele>381.5714285714286</ele><time>2026-03-28T07:52:19.327Z</time></trkpt><trkpt lat="45.754311" lon="8.9662331"><ele>381.2857142857143</ele><time>2026-03-28T07:52:23.299Z</time></trkpt><trkpt lat="45.7542581" lon="8.9661785"><ele>381.0</ele><time>2026-03-28T07:52:27.318Z</time></trkpt><trkpt lat="45.7542451" lon="8.9660878"><ele>381.0</ele><time>2026-03-28T07:52:33.266Z</time></trkpt><trkpt lat="45.7542578" lon="8.9659947"><ele>381.0</ele><time>2026-03-28T07:52:36.338Z</time></trkpt><trkpt lat="45.7542176" lon="8.9659239"><ele>381.0</ele><time>2026-03-28T07:52:40.325Z</time></trkpt><trkpt lat="45.7541802" lon="8.9658256"><ele>381.0</ele><time>2026-03-28T07:52:45.26Z</time></trkpt><trkpt lat="45.7541574" lon="8.9657401"><ele>381.0</ele><time>2026-03-28T07:52:49.319Z</time></trkpt><trkpt lat="45.7541395" lon="8.965645"><ele>381.0</ele><time>2026-03-28T07:52:54.29Z</time></trkpt><trkpt lat="45.754135" lon="8.9655352"><ele>381.0</ele><time>2026-03-28T07:52:59.329Z</time></trkpt><trkpt lat="45.7541426" lon="8.9654416"><ele>381.0</ele><time>2026-03-28T07:53:03.319Z</time></trkpt><trkpt lat="45.7541112" lon="8.9653591"><ele>381.0</ele><time>2026-03-28T07:53:08.254Z</time></trkpt><trkpt lat="45.7540822" lon="8.9652583"><ele>381.0</ele><time>2026-03-28T07:53:13.293Z</time></trkpt><trkpt lat="45.7540781" lon="8.965162"><ele>381.0</ele><time>2026-03-28T07:53:17.283Z</time></trkpt><trkpt lat="45.7540852" lon="8.9650651"><ele>381.0</ele><time>2026-03-28T07:53:21.272Z</time></trkpt><trkpt lat="45.7540768" lon="8.964971"><ele>381.0</ele><time>2026-03-28T07:53:25.34Z</time></trkpt><trkpt lat="45.7540653" lon="8.9648627"><ele>381.0</ele><time>2026-03-28T07:53:30.302Z</time></trkpt><trkpt lat="45.7540446" lon="8.9647748"><ele>382.0</ele><time>2026-03-28T07:53:34.291Z</time></trkpt><trkpt lat="45.7540341" lon="8.9646567"><ele>383.0</ele><time>2026-03-28T07:53:38.281Z</time></trkpt><trkpt lat="45.7540099" lon="8.9645729"><ele>384.0</ele><time>2026-03-28T07:53:44.265Z</time></trkpt><trkpt lat="45.753953" lon="8.9645215"><ele>385.0</ele><time>2026-03-28T07:53:51.3Z</time></trkpt><trkpt lat="45.7538741" lon="8.964498"><ele>386.0</ele><time>2026-03-28T07:53:56.234Z</time></trkpt><trkpt lat="45.7538067" lon="8.9645072"><ele>387.0</ele><time>2026-03-28T07:54:00.229Z</time></trkpt><trkpt lat="45.7537455" lon="8.9645454"><ele>388.0</ele><time>2026-03-28T07:54:04.318Z</time></trkpt><trkpt lat="45.7536869" lon="8.9646072"><ele>388.0</ele><time>2026-03-28T07:54:09.302Z</time></trkpt><trkpt lat="45.7536243" lon="8.9646714"><ele>388.0</ele><time>2026-03-28T07:54:14.267Z</time></trkpt><trkpt lat="45.7535592" lon="8.9647167"><ele>388.0</ele><time>2026-03-28T07:54:18.121Z</time></trkpt><trkpt lat="45.7535036" lon="8.964762"><ele>388.0</ele><time>2026-03-28T07:54:21.327Z</time></trkpt><trkpt lat="45.7534498" lon="8.9648091"><ele>388.0</ele><time>2026-03-28T07:54:24.266Z</time></trkpt><trkpt lat="45.7533909" lon="8.964855"><ele>388.0</ele><time>2026-03-28T07:54:28.256Z</time></trkpt><trkpt lat="45.7533336" lon="8.9649194"><ele>388.0</ele><time>2026-03-28T07:54:33.344Z</time></trkpt><trkpt lat="45.7532758" lon="8.9649837"><ele>388.2857142857143</ele><time>2026-03-28T07:54:39.28Z</time></trkpt><trkpt lat="45.7532195" lon="8.9650258"><ele>388.5714285714286</ele><time>2026-03-28T07:54:42.24Z</time></trkpt><trkpt lat="45.7531652" lon="8.9650764"><ele>388.8571428571429</ele><time>2026-03-28T07:54:45.198Z</time></trkpt><trkpt lat="45.7531053" lon="8.9651272"><ele>389.1428571428571</ele><time>2026-03-28T07:54:48.138Z</time></trkpt><trkpt lat="45.7530387" lon="8.9651869"><ele>389.42857142857144</ele><time>2026-03-28T07:54:52.298Z</time></trkpt><trkpt lat="45.7529922" lon="8.9652483"><ele>389.7142857142857</ele><time>2026-03-28T07:54:56.288Z</time></trkpt><trkpt lat="45.7529313" lon="8.9652992"><ele>390.0</ele><time>2026-03-28T07:55:01.327Z</time></trkpt><trkpt lat="45.7528923" lon="8.9653838"><ele>390.1666666666667</ele><time>2026-03-28T07:55:06.262Z</time></trkpt><trkpt lat="45.7528696" lon="8.9654877"><ele>390.33333333333337</ele><time>2026-03-28T07:55:11.341Z</time></trkpt><trkpt lat="45.752847" lon="8.9655998"><ele>390.5</ele><time>2026-03-28T07:55:15.302Z</time></trkpt><trkpt lat="45.7528404" lon="8.9656953"><ele>390.6666666666667</ele><time>2026-03-28T07:55:18.222Z</time></trkpt><trkpt lat="45.7528139" lon="8.9657924"><ele>390.83333333333337</ele><time>2026-03-28T07:55:22.325Z</time></trkpt><trkpt lat="45.7527857" lon="8.965888"><ele>391.0</ele><time>2026-03-28T07:55:27.259Z</time></trkpt><trkpt lat="45.7527442" lon="8.9659895"><ele>391.2857142857143</ele><time>2026-03-28T07:55:32.319Z</time></trkpt><trkpt lat="45.7526882" lon="8.9660377"><ele>391.57142857142856</ele><time>2026-03-28T07:55:37.245Z</time></trkpt><trkpt lat="45.7526229" lon="8.9660932"><ele>391.8571428571429</ele><time>2026-03-28T07:55:41.206Z</time></trkpt><trkpt lat="45.7525555" lon="8.9661531"><ele>392.1428571428571</ele><time>2026-03-28T07:55:45.317Z</time></trkpt><trkpt lat="45.752505" lon="8.966217"><ele>392.42857142857144</ele><time>2026-03-28T07:55:49.307Z</time></trkpt><trkpt lat="45.7524528" lon="8.9662675"><ele>392.7142857142857</ele><time>2026-03-28T07:55:53.296Z</time></trkpt><trkpt lat="45.7523824" lon="8.9663031"><ele>393.0</ele><time>2026-03-28T07:55:58.335Z</time></trkpt><trkpt lat="45.7523164" lon="8.9663174"><ele>393.00000000000006</ele><time>2026-03-28T07:56:02.324Z</time></trkpt><trkpt lat="45.7522471" lon="8.966327"><ele>393.0</ele><time>2026-03-28T07:56:06.325Z</time></trkpt><trkpt lat="45.7521805" lon="8.9663467"><ele>393.0</ele><time>2026-03-28T07:56:11.125Z</time></trkpt><trkpt lat="45.7521047" lon="8.9663651"><ele>393.0</ele><time>2026-03-28T07:56:16.288Z</time></trkpt><trkpt lat="45.7520394" lon="8.966387"><ele>393.0</ele><time>2026-03-28T07:56:21.327Z</time></trkpt><trkpt lat="45.7519682" lon="8.9663952"><ele>393.00000000000006</ele><time>2026-03-28T07:56:26.32Z</time></trkpt><trkpt lat="45.7518969" lon="8.966423"><ele>393.0</ele><time>2026-03-28T07:56:31.226Z</time></trkpt><trkpt lat="45.7518339" lon="8.9664614"><ele>392.5714285714286</ele><time>2026-03-28T07:56:35.302Z</time></trkpt><trkpt lat="45.7517629" lon="8.9665215"><ele>392.14285714285717</ele><time>2026-03-28T07:56:39.3Z</time></trkpt><trkpt lat="45.7517112" lon="8.9665826"><ele>391.7142857142857</ele><time>2026-03-28T07:56:43.299Z</time></trkpt><trkpt lat="45.7516548" lon="8.9666631"><ele>391.28571428571433</ele><time>2026-03-28T07:56:48.282Z</time></trkpt><trkpt lat="45.751612" lon="8.9667421"><ele>390.85714285714283</ele><time>2026-03-28T07:56:53.273Z</time></trkpt><trkpt lat="45.7515477" lon="8.9667683"><ele>390.42857142857144</ele><time>2026-03-28T07:56:57.321Z</time></trkpt><trkpt lat="45.7515111" lon="8.966856"><ele>390.0</ele><time>2026-03-28T07:57:02.272Z</time></trkpt><trkpt lat="45.7514852" lon="8.9669593"><ele>389.7142857142857</ele><time>2026-03-28T07:57:07.218Z</time></trkpt><trkpt lat="45.7514373" lon="8.9670217"><ele>389.42857142857144</ele><time>2026-03-28T07:57:13.221Z</time></trkpt><trkpt lat="45.7513927" lon="8.9670988"><ele>389.1428571428571</ele><time>2026-03-28T07:57:18.222Z</time></trkpt><trkpt lat="45.751354" lon="8.9671844"><ele>388.8571428571429</ele><time>2026-03-28T07:57:23.299Z</time></trkpt><trkpt lat="45.7513142" lon="8.9672612"><ele>388.5714285714286</ele><time>2026-03-28T07:57:27.261Z</time></trkpt><trkpt lat="45.751271" lon="8.9673361"><ele>388.2857142857143</ele><time>2026-03-28T07:57:31.24Z</time></trkpt><trkpt lat="45.7512236" lon="8.9674019"><ele>388.0</ele><time>2026-03-28T07:57:35.144Z</time></trkpt><trkpt lat="45.7511669" lon="8.9674552"><ele>388.0</ele><time>2026-03-28T07:57:40.24Z</time></trkpt><trkpt lat="45.7510981" lon="8.9674891"><ele>388.0</ele><time>2026-03-28T07:57:45.242Z</time></trkpt><trkpt lat="45.7510339" lon="8.9674841"><ele>388.0</ele><time>2026-03-28T07:57:48.201Z</time></trkpt><trkpt lat="45.7509608" lon="8.9674971"><ele>388.0</ele><time>2026-03-28T07:57:52.162Z</time></trkpt><trkpt lat="45.7508925" lon="8.9675197"><ele>388.0</ele><time>2026-03-28T07:57:57.02Z</time></trkpt><trkpt lat="45.7508257" lon="8.9675589"><ele>388.0</ele><time>2026-03-28T07:58:02.9Z</time></trkpt><trkpt lat="45.7507551" lon="8.9675731"><ele>388.0</ele><time>2026-03-28T07:58:07.258Z</time></trkpt><trkpt lat="45.7506798" lon="8.9675932"><ele>386.0</ele><time>2026-03-28T07:58:11.248Z</time></trkpt><trkpt lat="45.7505933" lon="8.9675991"><ele>384.0</ele><time>2026-03-28T07:58:12.319Z</time></trkpt><trkpt lat="45.7505187" lon="8.9676158"><ele>382.0</ele><time>2026-03-28T07:58:16.346Z</time></trkpt><trkpt lat="45.7504414" lon="8.9676298"><ele>380.0</ele><time>2026-03-28T07:58:24.266Z</time></trkpt><trkpt lat="45.7503765" lon="8.9676563"><ele>378.0</ele><time>2026-03-28T07:58:30.25Z</time></trkpt><trkpt lat="45.7503096" lon="8.9676641"><ele>376.0</ele><time>2026-03-28T07:58:37.284Z</time></trkpt><trkpt lat="45.7502441" lon="8.9676918"><ele>374.0</ele><time>2026-03-28T07:58:43.241Z</time></trkpt><trkpt lat="45.7501904" lon="8.9677542"><ele>372.7142857142857</ele><time>2026-03-28T07:58:49.302Z</time></trkpt><trkpt lat="45.750167" lon="8.9678421"><ele>371.42857142857144</ele><time>2026-03-28T07:58:57.336Z</time></trkpt><trkpt lat="45.7501138" lon="8.9678984"><ele>370.14285714285717</ele><time>2026-03-28T07:59:03.32Z</time></trkpt><trkpt lat="45.7500491" lon="8.9679271"><ele>368.8571428571429</ele><time>2026-03-28T07:59:09.239Z</time></trkpt><trkpt lat="45.7499931" lon="8.967985"><ele>367.57142857142856</ele><time>2026-03-28T07:59:16.158Z</time></trkpt><trkpt lat="45.749924" lon="8.9679953"><ele>366.28571428571433</ele><time>2026-03-28T07:59:20.1Z</time></trkpt><trkpt lat="45.7498542" lon="8.9679919"><ele>365.0</ele><time>2026-03-28T07:59:25.296Z</time></trkpt><trkpt lat="45.7497955" lon="8.968042"><ele>365.00000000000006</ele><time>2026-03-28T07:59:33.346Z</time></trkpt><trkpt lat="45.7497083" lon="8.9680231"><ele>365.0</ele><time>2026-03-28T07:59:39.33Z</time></trkpt><trkpt lat="45.7496384" lon="8.9680216"><ele>365.0</ele><time>2026-03-28T07:59:43.321Z</time></trkpt><trkpt lat="45.7495809" lon="8.9680752"><ele>365.0</ele><time>2026-03-28T07:59:48.227Z</time></trkpt><trkpt lat="45.7495274" lon="8.9681336"><ele>365.0</ele><time>2026-03-28T07:59:53.05Z</time></trkpt><trkpt lat="45.7494965" lon="8.9682327"><ele>365.00000000000006</ele><time>2026-03-28T07:59:59.277Z</time></trkpt><trkpt lat="45.7494346" lon="8.9682874"><ele>365.0</ele><time>2026-03-28T08:00:04.185Z</time></trkpt><trkpt lat="45.7493775" lon="8.9683586"><ele>366.28571428571433</ele><time>2026-03-28T08:00:08.259Z</time></trkpt><trkpt lat="45.7493238" lon="8.9684116"><ele>367.57142857142856</ele><time>2026-03-28T08:00:12.308Z</time></trkpt><trkpt lat="45.7492911" lon="8.9684932"><ele>368.8571428571429</ele><time>2026-03-28T08:00:17.334Z</time></trkpt><trkpt lat="45.7492488" lon="8.9685772"><ele>370.14285714285717</ele><time>2026-03-28T08:00:23.32Z</time></trkpt><trkpt lat="45.7492084" lon="8.9686484"><ele>371.42857142857144</ele><time>2026-03-28T08:00:30.24Z</time></trkpt><trkpt lat="45.7491319" lon="8.9686888"><ele>372.7142857142857</ele><time>2026-03-28T08:00:36.167Z</time></trkpt><trkpt lat="45.7490672" lon="8.9687129"><ele>374.0</ele><time>2026-03-28T08:00:39.106Z</time></trkpt><trkpt lat="45.7489862" lon="8.9687538"><ele>374.0</ele><time>2026-03-28T08:00:42.045Z</time></trkpt><trkpt lat="45.7489182" lon="8.9688115"><ele>374.0</ele><time>2026-03-28T08:00:44.985Z</time></trkpt><trkpt lat="45.748865" lon="8.968883"><ele>374.0</ele><time>2026-03-28T08:00:47.99Z</time></trkpt><trkpt lat="45.7488179" lon="8.9689566"><ele>374.0</ele><time>2026-03-28T08:00:53.239Z</time></trkpt><trkpt lat="45.7487637" lon="8.9690158"><ele>374.0</ele><time>2026-03-28T08:00:59.263Z</time></trkpt><trkpt lat="45.7486761" lon="8.969014"><ele>374.0</ele><time>2026-03-28T08:01:06.202Z</time></trkpt><trkpt lat="45.748611" lon="8.9690207"><ele>374.0</ele><time>2026-03-28T08:01:10.2Z</time></trkpt><trkpt lat="45.7485469" lon="8.9690577"><ele>373.57142857142856</ele><time>2026-03-28T08:01:15.285Z</time></trkpt><trkpt lat="45.7484831" lon="8.9690917"><ele>373.14285714285717</ele><time>2026-03-28T08:01:19.275Z</time></trkpt><trkpt lat="45.748424" lon="8.9691355"><ele>372.7142857142857</ele><time>2026-03-28T08:01:24.314Z</time></trkpt><trkpt lat="45.7483635" lon="8.9691752"><ele>372.2857142857143</ele><time>2026-03-28T08:01:28.324Z</time></trkpt><trkpt lat="45.7482923" lon="8.9692099"><ele>371.8571428571429</ele><time>2026-03-28T08:01:32.161Z</time></trkpt><trkpt lat="45.7482241" lon="8.9692146"><ele>371.42857142857144</ele><time>2026-03-28T08:01:35.025Z</time></trkpt><trkpt lat="45.7481458" lon="8.9692338"><ele>371.0</ele><time>2026-03-28T08:01:38.879Z</time></trkpt><trkpt lat="45.7480804" lon="8.969244"><ele>371.42857142857144</ele><time>2026-03-28T08:01:43.26Z</time></trkpt><trkpt lat="45.7480144" lon="8.9692511"><ele>371.8571428571429</ele><time>2026-03-28T08:01:49.3Z</time></trkpt><trkpt lat="45.7479559" lon="8.9692136"><ele>372.2857142857143</ele><time>2026-03-28T08:01:51.294Z</time></trkpt><trkpt lat="45.7478861" lon="8.9692196"><ele>372.7142857142857</ele><time>2026-03-28T08:01:55.284Z</time></trkpt><trkpt lat="45.7478113" lon="8.969253"><ele>373.14285714285717</ele><time>2026-03-28T08:01:59.322Z</time></trkpt><trkpt lat="45.7477385" lon="8.9692846"><ele>373.57142857142856</ele><time>2026-03-28T08:02:03.226Z</time></trkpt><trkpt lat="45.7476712" lon="8.9693116"><ele>374.0</ele><time>2026-03-28T08:02:07.101Z</time></trkpt><trkpt lat="45.7476054" lon="8.9693462"><ele>374.0</ele><time>2026-03-28T08:02:11.106Z</time></trkpt><trkpt lat="45.7475335" lon="8.969379"><ele>374.0</ele><time>2026-03-28T08:02:14.954Z</time></trkpt><trkpt lat="45.7474709" lon="8.9694068"><ele>374.0</ele><time>2026-03-28T08:02:18.275Z</time></trkpt><trkpt lat="45.7474049" lon="8.9694497"><ele>374.0</ele><time>2026-03-28T08:02:21.231Z</time></trkpt><trkpt lat="45.7473525" lon="8.9695032"><ele>374.0</ele><time>2026-03-28T08:02:24.259Z</time></trkpt><trkpt lat="45.7472957" lon="8.9695812"><ele>374.0</ele><time>2026-03-28T08:02:28.126Z</time></trkpt><trkpt lat="45.747237" lon="8.9696165"><ele>374.0</ele><time>2026-03-28T08:02:32.258Z</time></trkpt><trkpt lat="45.7471619" lon="8.9696544"><ele>374.0</ele><time>2026-03-28T08:02:37.021Z</time></trkpt><trkpt lat="45.7470881" lon="8.9696792"><ele>374.0</ele><time>2026-03-28T08:02:41.878Z</time></trkpt><trkpt lat="45.7470244" lon="8.9697041"><ele>374.0</ele><time>2026-03-28T08:02:46.841Z</time></trkpt><trkpt lat="45.7469624" lon="8.96974"><ele>374.0</ele><time>2026-03-28T08:02:51.222Z</time></trkpt><trkpt lat="45.7468944" lon="8.9697753"><ele>374.0</ele><time>2026-03-28T08:02:55.229Z</time></trkpt><trkpt lat="45.7468124" lon="8.9697999"><ele>374.0</ele><time>2026-03-28T08:02:59.323Z</time></trkpt><trkpt lat="45.746735" lon="8.9698223"><ele>374.0</ele><time>2026-03-28T08:03:02.368Z</time></trkpt><trkpt lat="45.7466719" lon="8.9698505"><ele>372.7142857142857</ele><time>2026-03-28T08:03:05.299Z</time></trkpt><trkpt lat="45.746613" lon="8.9698889"><ele>371.42857142857144</ele><time>2026-03-28T08:03:08.287Z</time></trkpt><trkpt lat="45.7465538" lon="8.9699511"><ele>370.14285714285717</ele><time>2026-03-28T08:03:12.271Z</time></trkpt><trkpt lat="45.7464942" lon="8.9700185"><ele>368.8571428571429</ele><time>2026-03-28T08:03:17.201Z</time></trkpt><trkpt lat="45.7464336" lon="8.9700499"><ele>367.57142857142856</ele><time>2026-03-28T08:03:21.067Z</time></trkpt><trkpt lat="45.7463561" lon="8.970062"><ele>366.28571428571433</ele><time>2026-03-28T08:03:25.254Z</time></trkpt><trkpt lat="45.7462816" lon="8.9700823"><ele>365.0</ele><time>2026-03-28T08:03:30.293Z</time></trkpt><trkpt lat="45.7462159" lon="8.9701363"><ele>365.0</ele><time>2026-03-28T08:03:34.283Z</time></trkpt><trkpt lat="45.7461562" lon="8.9701698"><ele>365.0</ele><time>2026-03-28T08:03:38.179Z</time></trkpt><trkpt lat="45.7460631" lon="8.9702601"><ele>365.0</ele><time>2026-03-28T08:04:00.318Z</time></trkpt><trkpt lat="45.7459868" lon="8.9702894"><ele>365.0</ele><time>2026-03-28T08:04:04.308Z</time></trkpt><trkpt lat="45.7459277" lon="8.9703268"><ele>365.0</ele><time>2026-03-28T08:04:07.352Z</time></trkpt><trkpt lat="45.7458652" lon="8.9703493"><ele>365.0</ele><time>2026-03-28T08:04:11.2Z</time></trkpt><trkpt lat="45.7457976" lon="8.9703917"><ele>364.8571428571429</ele><time>2026-03-28T08:04:16.276Z</time></trkpt><trkpt lat="45.745732" lon="8.9704304"><ele>364.7142857142857</ele><time>2026-03-28T08:04:20.353Z</time></trkpt><trkpt lat="45.745662" lon="8.9704445"><ele>364.57142857142856</ele><time>2026-03-28T08:04:25.144Z</time></trkpt><trkpt lat="45.7455998" lon="8.9704733"><ele>364.42857142857144</ele><time>2026-03-28T08:04:29.294Z</time></trkpt><trkpt lat="45.7455369" lon="8.9705195"><ele>364.2857142857143</ele><time>2026-03-28T08:04:34.333Z</time></trkpt><trkpt lat="45.7454714" lon="8.9705357"><ele>364.14285714285717</ele><time>2026-03-28T08:04:38.322Z</time></trkpt><trkpt lat="45.7454005" lon="8.9705875"><ele>364.0</ele><time>2026-03-28T08:04:43.256Z</time></trkpt><trkpt lat="45.7453324" lon="8.9706075"><ele>364.0</ele><time>2026-03-28T08:04:48.337Z</time></trkpt><trkpt lat="45.7452637" lon="8.9705974"><ele>364.0</ele><time>2026-03-28T08:04:53.23Z</time></trkpt><trkpt lat="45.7451897" lon="8.9705812"><ele>364.0</ele><time>2026-03-28T08:04:57.324Z</time></trkpt><trkpt lat="45.7451225" lon="8.9705662"><ele>364.0</ele><time>2026-03-28T08:05:02.183Z</time></trkpt><trkpt lat="45.7450408" lon="8.9705634"><ele>364.0</ele><time>2026-03-28T08:05:09.362Z</time></trkpt><trkpt lat="45.7449629" lon="8.9705158"><ele>364.0</ele><time>2026-03-28T08:05:13.302Z</time></trkpt><trkpt lat="45.7449074" lon="8.9704608"><ele>364.0</ele><time>2026-03-28T08:05:16.224Z</time></trkpt><trkpt lat="45.744857" lon="8.9704061"><ele>363.42857142857144</ele><time>2026-03-28T08:05:19.265Z</time></trkpt><trkpt lat="45.744803" lon="8.9703538"><ele>362.8571428571429</ele><time>2026-03-28T08:05:22.358Z</time></trkpt><trkpt lat="45.7447437" lon="8.9703077"><ele>362.2857142857143</ele><time>2026-03-28T08:05:25.422Z</time></trkpt><trkpt lat="45.7446841" lon="8.970276"><ele>361.7142857142857</ele><time>2026-03-28T08:05:29.258Z</time></trkpt><trkpt lat="45.7446156" lon="8.9702543"><ele>361.14285714285717</ele><time>2026-03-28T08:05:34.277Z</time></trkpt><trkpt lat="45.7445435" lon="8.9702579"><ele>360.57142857142856</ele><time>2026-03-28T08:05:38.267Z</time></trkpt><trkpt lat="45.7444696" lon="8.9702489"><ele>360.0</ele><time>2026-03-28T08:05:43.306Z</time></trkpt><trkpt lat="45.7443886" lon="8.9702542"><ele>359.1428571428571</ele><time>2026-03-28T08:05:47.295Z</time></trkpt><trkpt lat="45.74432" lon="8.9702592"><ele>358.28571428571433</ele><time>2026-03-28T08:05:50.266Z</time></trkpt><trkpt lat="45.7442427" lon="8.9702772"><ele>357.42857142857144</ele><time>2026-03-28T08:05:54.206Z</time></trkpt><trkpt lat="45.7441695" lon="8.9702924"><ele>356.57142857142856</ele><time>2026-03-28T08:05:58.978Z</time></trkpt><trkpt lat="45.7441026" lon="8.9703196"><ele>355.71428571428567</ele><time>2026-03-28T08:06:03.283Z</time></trkpt><trkpt lat="45.7440257" lon="8.9703458"><ele>354.8571428571429</ele><time>2026-03-28T08:06:08.291Z</time></trkpt><trkpt lat="45.7439528" lon="8.9703666"><ele>354.0</ele><time>2026-03-28T08:06:12.281Z</time></trkpt><trkpt lat="45.7438799" lon="8.9703838"><ele>354.0</ele><time>2026-03-28T08:06:16.357Z</time></trkpt><trkpt lat="45.7437979" lon="8.9703892"><ele>354.0</ele><time>2026-03-28T08:06:21.309Z</time></trkpt><trkpt lat="45.7437202" lon="8.9703931"><ele>354.0</ele><time>2026-03-28T08:06:25.299Z</time></trkpt><trkpt lat="45.7436472" lon="8.9703957"><ele>354.0</ele><time>2026-03-28T08:06:29.318Z</time></trkpt><trkpt lat="45.7435825" lon="8.9703964"><ele>354.0</ele><time>2026-03-28T08:06:33.203Z</time></trkpt><trkpt lat="45.7435165" lon="8.9703973"><ele>354.0</ele><time>2026-03-28T08:06:37.268Z</time></trkpt><trkpt lat="45.743447" lon="8.9703799"><ele>354.0</ele><time>2026-03-28T08:06:41.257Z</time></trkpt><trkpt lat="45.7433655" lon="8.970376"><ele>354.0</ele><time>2026-03-28T08:06:45.726Z</time></trkpt><trkpt lat="45.7432999" lon="8.9703873"><ele>354.0</ele><time>2026-03-28T08:06:50.164Z</time></trkpt><trkpt lat="45.7432327" lon="8.9703751"><ele>354.0</ele><time>2026-03-28T08:06:55.079Z</time></trkpt><trkpt lat="45.743184" lon="8.9704355"><ele>354.0</ele><time>2026-03-28T08:06:58.983Z</time></trkpt><trkpt lat="45.7431326" lon="8.9705119"><ele>354.0</ele><time>2026-03-28T08:07:03.822Z</time></trkpt><trkpt lat="45.7430954" lon="8.9705964"><ele>354.0</ele><time>2026-03-28T08:07:10.579Z</time></trkpt><trkpt lat="45.7430632" lon="8.9706835"><ele>354.0</ele><time>2026-03-28T08:07:15.485Z</time></trkpt><trkpt lat="45.7430403" lon="8.9707741"><ele>354.0</ele><time>2026-03-28T08:07:21.258Z</time></trkpt><trkpt lat="45.7429919" lon="8.9708388"><ele>354.0</ele><time>2026-03-28T08:07:29.342Z</time></trkpt><trkpt lat="45.7429531" lon="8.9707612"><ele>354.0</ele><time>2026-03-28T08:07:41.31Z</time></trkpt><trkpt lat="45.7429509" lon="8.9706549"><ele>354.0</ele><time>2026-03-28T08:07:47.295Z</time></trkpt><trkpt lat="45.742935" lon="8.9705614"><ele>354.0</ele><time>2026-03-28T08:07:52.334Z</time></trkpt><trkpt lat="45.7429098" lon="8.9704726"><ele>354.0</ele><time>2026-03-28T08:08:00.18Z</time></trkpt><trkpt lat="45.7428395" lon="8.9704647"><ele>354.0</ele><time>2026-03-28T08:08:08.579Z</time></trkpt><trkpt lat="45.7427755" lon="8.9704667"><ele>354.0</ele><time>2026-03-28T08:08:16.205Z</time></trkpt><trkpt lat="45.7427572" lon="8.9705647"><ele>354.0</ele><time>2026-03-28T08:08:23.162Z</time></trkpt><trkpt lat="45.7426827" lon="8.9706605"><ele>354.0</ele><time>2026-03-28T08:08:46.295Z</time></trkpt><trkpt lat="45.7426735" lon="8.9707539"><ele>354.0</ele><time>2026-03-28T08:08:50.285Z</time></trkpt><trkpt lat="45.7426664" lon="8.9708496"><ele>354.0</ele><time>2026-03-28T08:08:55.258Z</time></trkpt><trkpt lat="45.7427136" lon="8.9709833"><ele>354.0</ele><time>2026-03-28T08:09:00.26Z</time></trkpt><trkpt lat="45.7427364" lon="8.9710814"><ele>355.0</ele><time>2026-03-28T08:09:03.285Z</time></trkpt><trkpt lat="45.7427004" lon="8.9711677"><ele>356.0</ele><time>2026-03-28T08:09:07.292Z</time></trkpt><trkpt lat="45.7426467" lon="8.9712431"><ele>357.0</ele><time>2026-03-28T08:09:13.276Z</time></trkpt><trkpt lat="45.7425835" lon="8.9712918"><ele>358.0</ele><time>2026-03-28T08:09:17.265Z</time></trkpt><trkpt lat="45.7425107" lon="8.971326"><ele>359.0</ele><time>2026-03-28T08:09:20.31Z</time></trkpt><trkpt lat="45.7424376" lon="8.971349"><ele>360.0</ele><time>2026-03-28T08:09:23.249Z</time></trkpt><trkpt lat="45.7423672" lon="8.9713632"><ele>361.0</ele><time>2026-03-28T08:09:26.293Z</time></trkpt><trkpt lat="45.7422962" lon="8.9713575"><ele>361.0</ele><time>2026-03-28T08:09:29.338Z</time></trkpt><trkpt lat="45.742219" lon="8.9713328"><ele>361.0</ele><time>2026-03-28T08:09:33.327Z</time></trkpt><trkpt lat="45.7421521" lon="8.9713033"><ele>361.0</ele><time>2026-03-28T08:09:37.317Z</time></trkpt><trkpt lat="45.7420856" lon="8.9712723"><ele>361.0</ele><time>2026-03-28T08:09:41.306Z</time></trkpt><trkpt lat="45.7420182" lon="8.9712458"><ele>361.0</ele><time>2026-03-28T08:09:45.345Z</time></trkpt><trkpt lat="45.74196" lon="8.9712101"><ele>361.0</ele><time>2026-03-28T08:09:51.281Z</time></trkpt><trkpt lat="45.7418937" lon="8.9711975"><ele>361.0</ele><time>2026-03-28T08:09:56.32Z</time></trkpt><trkpt lat="45.7418202" lon="8.9711774"><ele>361.0</ele><time>2026-03-28T08:10:01.342Z</time></trkpt><trkpt lat="45.7417537" lon="8.9711815"><ele>361.0</ele><time>2026-03-28T08:10:06.239Z</time></trkpt><trkpt lat="45.7416846" lon="8.9711794"><ele>361.0</ele><time>2026-03-28T08:10:10.388Z</time></trkpt><trkpt lat="45.7416127" lon="8.9711724"><ele>361.0</ele><time>2026-03-28T08:10:15.228Z</time></trkpt><trkpt lat="45.7415449" lon="8.9711577"><ele>361.0</ele><time>2026-03-28T08:10:19.312Z</time></trkpt><trkpt lat="45.7414703" lon="8.9711543"><ele>361.0</ele><time>2026-03-28T08:10:25.347Z</time></trkpt><trkpt lat="45.7413939" lon="8.971153"><ele>361.0</ele><time>2026-03-28T08:10:31.14Z</time></trkpt><trkpt lat="45.7413309" lon="8.9711647"><ele>361.0</ele><time>2026-03-28T08:10:35.062Z</time></trkpt><trkpt lat="45.7412546" lon="8.9711777"><ele>361.0</ele><time>2026-03-28T08:10:39.959Z</time></trkpt><trkpt lat="45.7411914" lon="8.9711922"><ele>361.0</ele><time>2026-03-28T08:10:43.901Z</time></trkpt><trkpt lat="45.741126" lon="8.9711898"><ele>361.0</ele><time>2026-03-28T08:10:47.842Z</time></trkpt><trkpt lat="45.741048" lon="8.9711972"><ele>361.0</ele><time>2026-03-28T08:10:52.681Z</time></trkpt><trkpt lat="45.7409775" lon="8.971196"><ele>361.0</ele><time>2026-03-28T08:10:56.623Z</time></trkpt><trkpt lat="45.7409018" lon="8.9712065"><ele>361.0</ele><time>2026-03-28T08:11:01.045Z</time></trkpt><trkpt lat="45.7408274" lon="8.9711983"><ele>361.14285714285717</ele><time>2026-03-28T08:11:05.805Z</time></trkpt><trkpt lat="45.7407529" lon="8.9711897"><ele>361.2857142857143</ele><time>2026-03-28T08:11:10.243Z</time></trkpt><trkpt lat="45.740681" lon="8.9711964"><ele>361.42857142857144</ele><time>2026-03-28T08:11:16.16Z</time></trkpt><trkpt lat="45.740619" lon="8.9712293"><ele>361.57142857142856</ele><time>2026-03-28T08:11:21.04Z</time></trkpt><trkpt lat="45.740558" lon="8.971267"><ele>361.71428571428567</ele><time>2026-03-28T08:11:25.085Z</time></trkpt><trkpt lat="45.7404907" lon="8.9713036"><ele>361.85714285714283</ele><time>2026-03-28T08:11:30.039Z</time></trkpt><trkpt lat="45.7404301" lon="8.9713424"><ele>362.0</ele><time>2026-03-28T08:11:36.003Z</time></trkpt><trkpt lat="45.7403621" lon="8.9713722"><ele>362.0</ele><time>2026-03-28T08:11:41.921Z</time></trkpt><trkpt lat="45.7402933" lon="8.9714049"><ele>362.0</ele><time>2026-03-28T08:11:45.843Z</time></trkpt><trkpt lat="45.7402142" lon="8.9714442"><ele>362.0</ele><time>2026-03-28T08:11:49.765Z</time></trkpt><trkpt lat="45.7401512" lon="8.9714607"><ele>362.0</ele><time>2026-03-28T08:11:52.724Z</time></trkpt><trkpt lat="45.7400792" lon="8.9714761"><ele>362.0</ele><time>2026-03-28T08:11:55.703Z</time></trkpt><trkpt lat="45.7400091" lon="8.9714996"><ele>362.0</ele><time>2026-03-28T08:11:58.61Z</time></trkpt><trkpt lat="45.7399418" lon="8.9715262"><ele>362.0</ele><time>2026-03-28T08:12:02.518Z</time></trkpt><trkpt lat="45.7398704" lon="8.9715697"><ele>362.1428571428571</ele><time>2026-03-28T08:12:07.806Z</time></trkpt><trkpt lat="45.7398109" lon="8.9716005"><ele>362.2857142857143</ele><time>2026-03-28T08:12:13.179Z</time></trkpt><trkpt lat="45.7397457" lon="8.97164"><ele>362.42857142857144</ele><time>2026-03-28T08:12:18.122Z</time></trkpt><trkpt lat="45.7396809" lon="8.9716801"><ele>362.57142857142856</ele><time>2026-03-28T08:12:23.303Z</time></trkpt><trkpt lat="45.7396116" lon="8.9717212"><ele>362.7142857142857</ele><time>2026-03-28T08:12:28.345Z</time></trkpt><trkpt lat="45.7395439" lon="8.971763"><ele>362.85714285714283</ele><time>2026-03-28T08:12:33.241Z</time></trkpt><trkpt lat="45.7394854" lon="8.9718117"><ele>363.0</ele><time>2026-03-28T08:12:41.239Z</time></trkpt><trkpt lat="45.73941" lon="8.9718515"><ele>362.4285714285714</ele><time>2026-03-28T08:12:47.241Z</time></trkpt><trkpt lat="45.7393304" lon="8.9718411"><ele>361.85714285714283</ele><time>2026-03-28T08:12:52.266Z</time></trkpt><trkpt lat="45.7392672" lon="8.9718666"><ele>361.2857142857143</ele><time>2026-03-28T08:12:58.265Z</time></trkpt><trkpt lat="45.7392401" lon="8.9719496"><ele>360.71428571428567</ele><time>2026-03-28T08:13:14.328Z</time></trkpt><trkpt lat="45.7392233" lon="8.972061"><ele>360.14285714285717</ele><time>2026-03-28T08:13:17.267Z</time></trkpt><trkpt lat="45.7392443" lon="8.9721666"><ele>359.57142857142856</ele><time>2026-03-28T08:14:00.311Z</time></trkpt><trkpt lat="45.7392404" lon="8.9722678"><ele>359.0</ele><time>2026-03-28T08:14:06.296Z</time></trkpt><trkpt lat="45.7392251" lon="8.9723761"><ele>359.0</ele><time>2026-03-28T08:14:12.28Z</time></trkpt><trkpt lat="45.7391751" lon="8.9724337"><ele>359.0</ele><time>2026-03-28T08:14:17.319Z</time></trkpt><trkpt lat="45.7390961" lon="8.9724552"><ele>359.0</ele><time>2026-03-28T08:14:22.179Z</time></trkpt><trkpt lat="45.7390292" lon="8.9724643"><ele>359.0</ele><time>2026-03-28T08:14:27.046Z</time></trkpt><trkpt lat="45.7389585" lon="8.9724648"><ele>359.0</ele><time>2026-03-28T08:14:33.306Z</time></trkpt><trkpt lat="45.7388879" lon="8.9724633"><ele>359.0</ele><time>2026-03-28T08:14:39.261Z</time></trkpt><trkpt lat="45.7388088" lon="8.9724472"><ele>359.0</ele><time>2026-03-28T08:14:43.251Z</time></trkpt><trkpt lat="45.7387338" lon="8.9724297"><ele>359.0</ele><time>2026-03-28T08:14:46.295Z</time></trkpt><trkpt lat="45.7386532" lon="8.9723907"><ele>359.0</ele><time>2026-03-28T08:14:49.303Z</time></trkpt><trkpt lat="45.7385826" lon="8.9723709"><ele>359.0</ele><time>2026-03-28T08:14:52.244Z</time></trkpt><trkpt lat="45.7385062" lon="8.9723735"><ele>359.0</ele><time>2026-03-28T08:14:56.269Z</time></trkpt><trkpt lat="45.7384283" lon="8.9723755"><ele>359.0</ele><time>2026-03-28T08:15:01.308Z</time></trkpt><trkpt lat="45.7383624" lon="8.9723595"><ele>359.0</ele><time>2026-03-28T08:15:05.298Z</time></trkpt><trkpt lat="45.7382981" lon="8.9723336"><ele>359.0</ele><time>2026-03-28T08:15:09.165Z</time></trkpt><trkpt lat="45.7382297" lon="8.9722913"><ele>359.0</ele><time>2026-03-28T08:15:15.271Z</time></trkpt><trkpt lat="45.738165" lon="8.9722672"><ele>359.0</ele><time>2026-03-28T08:15:20.31Z</time></trkpt><trkpt lat="45.7380883" lon="8.9722712"><ele>359.0</ele><time>2026-03-28T08:15:25.247Z</time></trkpt><trkpt lat="45.7380179" lon="8.9722666"><ele>359.0</ele><time>2026-03-28T08:15:29.234Z</time></trkpt><trkpt lat="45.7379457" lon="8.9722514"><ele>359.0</ele><time>2026-03-28T08:15:33.329Z</time></trkpt><trkpt lat="45.7378714" lon="8.9722311"><ele>359.0</ele><time>2026-03-28T08:15:37.318Z</time></trkpt><trkpt lat="45.7378061" lon="8.9722013"><ele>359.0</ele><time>2026-03-28T08:15:41.318Z</time></trkpt><trkpt lat="45.7377376" lon="8.9721543"><ele>359.42857142857144</ele><time>2026-03-28T08:15:46.187Z</time></trkpt><trkpt lat="45.737674" lon="8.9721168"><ele>359.8571428571429</ele><time>2026-03-28T08:15:50.336Z</time></trkpt><trkpt lat="45.7375941" lon="8.9720973"><ele>360.2857142857143</ele><time>2026-03-28T08:15:54.325Z</time></trkpt><trkpt lat="45.7375382" lon="8.9720485"><ele>360.7142857142857</ele><time>2026-03-28T08:15:58.315Z</time></trkpt><trkpt lat="45.7374685" lon="8.9720011"><ele>361.1428571428571</ele><time>2026-03-28T08:16:04.338Z</time></trkpt><trkpt lat="45.737416" lon="8.9719407"><ele>361.57142857142856</ele><time>2026-03-28T08:16:08.299Z</time></trkpt><trkpt lat="45.7373636" lon="8.9718669"><ele>362.0</ele><time>2026-03-28T08:16:12.203Z</time></trkpt><trkpt lat="45.7373087" lon="8.9717902"><ele>362.0</ele><time>2026-03-28T08:16:16.145Z</time></trkpt><trkpt lat="45.737257" lon="8.9717221"><ele>362.0</ele><time>2026-03-28T08:16:20.087Z</time></trkpt><trkpt lat="45.737214" lon="8.9716514"><ele>362.0</ele><time>2026-03-28T08:16:24.032Z</time></trkpt><trkpt lat="45.7371693" lon="8.9715788"><ele>362.0</ele><time>2026-03-28T08:16:27.006Z</time></trkpt><trkpt lat="45.7371223" lon="8.9715087"><ele>362.0</ele><time>2026-03-28T08:16:30.938Z</time></trkpt><trkpt lat="45.7370665" lon="8.9714367"><ele>362.0</ele><time>2026-03-28T08:16:35.805Z</time></trkpt><trkpt lat="45.7370243" lon="8.9713615"><ele>362.0</ele><time>2026-03-28T08:16:40.721Z</time></trkpt><trkpt lat="45.7369729" lon="8.9712958"><ele>361.1666666666667</ele><time>2026-03-28T08:16:44.644Z</time></trkpt><trkpt lat="45.7369139" lon="8.9712358"><ele>360.33333333333337</ele><time>2026-03-28T08:16:47.945Z</time></trkpt><trkpt lat="45.7368495" lon="8.9711937"><ele>359.5</ele><time>2026-03-28T08:16:50.905Z</time></trkpt><trkpt lat="45.7367855" lon="8.9711732"><ele>358.6666666666667</ele><time>2026-03-28T08:16:54.76Z</time></trkpt><trkpt lat="45.7367271" lon="8.9710511"><ele>357.8333333333333</ele><time>2026-03-28T08:16:58.101Z</time></trkpt><trkpt lat="45.7366618" lon="8.971008"><ele>357.0</ele><time>2026-03-28T08:17:01.939Z</time></trkpt><trkpt lat="45.7366079" lon="8.9709433"><ele>357.0</ele><time>2026-03-28T08:17:08.219Z</time></trkpt><trkpt lat="45.7365457" lon="8.9709085"><ele>357.0</ele><time>2026-03-28T08:17:13.086Z</time></trkpt><trkpt lat="45.7364826" lon="8.9708755"><ele>357.0</ele><time>2026-03-28T08:17:17.264Z</time></trkpt><trkpt lat="45.7364131" lon="8.9708307"><ele>357.0</ele><time>2026-03-28T08:17:21.321Z</time></trkpt><trkpt lat="45.7363309" lon="8.9708214"><ele>357.0</ele><time>2026-03-28T08:17:25.243Z</time></trkpt><trkpt lat="45.7362659" lon="8.9708295"><ele>357.0</ele><time>2026-03-28T08:17:28.223Z</time></trkpt><trkpt lat="45.7362022" lon="8.9708336"><ele>357.0</ele><time>2026-03-28T08:17:31.125Z</time></trkpt><trkpt lat="45.7361286" lon="8.9708221"><ele>355.7142857142857</ele><time>2026-03-28T08:17:35.018Z</time></trkpt><trkpt lat="45.7360677" lon="8.9707972"><ele>354.42857142857144</ele><time>2026-03-28T08:17:38.961Z</time></trkpt><trkpt lat="45.7360014" lon="8.9707773"><ele>353.1428571428571</ele><time>2026-03-28T08:17:44.22Z</time></trkpt><trkpt lat="45.7359355" lon="8.9707544"><ele>351.8571428571429</ele><time>2026-03-28T08:17:48.199Z</time></trkpt><trkpt lat="45.7358572" lon="8.9707466"><ele>350.57142857142856</ele><time>2026-03-28T08:17:52.083Z</time></trkpt><trkpt lat="45.7357854" lon="8.9707706"><ele>349.2857142857143</ele><time>2026-03-28T08:17:56.319Z</time></trkpt><trkpt lat="45.7357203" lon="8.9707787"><ele>348.0</ele><time>2026-03-28T08:17:59.319Z</time></trkpt><trkpt lat="45.7356567" lon="8.9707859"><ele>348.0</ele><time>2026-03-28T08:18:02.219Z</time></trkpt><trkpt lat="45.7355826" lon="8.970817"><ele>348.0</ele><time>2026-03-28T08:18:06.218Z</time></trkpt><trkpt lat="45.7355269" lon="8.9708641"><ele>348.0</ele><time>2026-03-28T08:18:10.283Z</time></trkpt><trkpt lat="45.7354771" lon="8.9709251"><ele>348.0</ele><time>2026-03-28T08:18:15.322Z</time></trkpt><trkpt lat="45.7354472" lon="8.9710059"><ele>348.0</ele><time>2026-03-28T08:18:20.239Z</time></trkpt><trkpt lat="45.7354004" lon="8.9711392"><ele>348.0</ele><time>2026-03-28T08:18:31.28Z</time></trkpt><trkpt lat="45.7354555" lon="8.9710816"><ele>348.0</ele><time>2026-03-28T08:18:43.001Z</time></trkpt><trkpt lat="45.7354842" lon="8.9709931"><ele>348.0</ele><time>2026-03-28T08:18:47.803Z</time></trkpt><trkpt lat="45.7354943" lon="8.970887"><ele>348.0</ele><time>2026-03-28T08:18:54.523Z</time></trkpt><trkpt lat="45.7355035" lon="8.9707887"><ele>348.0</ele><time>2026-03-28T08:19:00.286Z</time></trkpt><trkpt lat="45.7354941" lon="8.9706888"><ele>348.0</ele><time>2026-03-28T08:19:05.002Z</time></trkpt><trkpt lat="45.7355039" lon="8.9705866"><ele>348.0</ele><time>2026-03-28T08:19:09.258Z</time></trkpt><trkpt lat="45.7355332" lon="8.9704892"><ele>348.0</ele><time>2026-03-28T08:19:13.104Z</time></trkpt><trkpt lat="45.735567" lon="8.9703898"><ele>348.0</ele><time>2026-03-28T08:19:16.941Z</time></trkpt><trkpt lat="45.7355817" lon="8.9702884"><ele>348.0</ele><time>2026-03-28T08:19:20.902Z</time></trkpt><trkpt lat="45.7355931" lon="8.9701836"><ele>348.0</ele><time>2026-03-28T08:19:25.741Z</time></trkpt><trkpt lat="45.7355573" lon="8.9700905"><ele>348.0</ele><time>2026-03-28T08:19:29.625Z</time></trkpt><trkpt lat="45.7355182" lon="8.9699861"><ele>348.0</ele><time>2026-03-28T08:19:33.481Z</time></trkpt><trkpt lat="45.7355136" lon="8.9698836"><ele>348.0</ele><time>2026-03-28T08:19:37.279Z</time></trkpt><trkpt lat="45.7355146" lon="8.9697768"><ele>348.0</ele><time>2026-03-28T08:19:41.279Z</time></trkpt><trkpt lat="45.7355094" lon="8.969686"><ele>348.0</ele><time>2026-03-28T08:19:45.295Z</time></trkpt><trkpt lat="45.7354713" lon="8.969577"><ele>346.42857142857144</ele><time>2026-03-28T08:19:49.284Z</time></trkpt><trkpt lat="45.7354469" lon="8.9694873"><ele>344.8571428571429</ele><time>2026-03-28T08:19:52.265Z</time></trkpt><trkpt lat="45.73543" lon="8.9693755"><ele>343.28571428571433</ele><time>2026-03-28T08:19:56.159Z</time></trkpt><trkpt lat="45.7354258" lon="8.9692664"><ele>341.7142857142857</ele><time>2026-03-28T08:20:00.308Z</time></trkpt><trkpt lat="45.7354387" lon="8.9691748"><ele>340.14285714285717</ele><time>2026-03-28T08:20:04.26Z</time></trkpt><trkpt lat="45.7354601" lon="8.9690711"><ele>338.5714285714286</ele><time>2026-03-28T08:20:09.232Z</time></trkpt><trkpt lat="45.7354653" lon="8.9689599"><ele>337.0</ele><time>2026-03-28T08:20:14.271Z</time></trkpt><trkpt lat="45.7354706" lon="8.968859"><ele>336.7142857142857</ele><time>2026-03-28T08:20:18.281Z</time></trkpt><trkpt lat="45.7354826" lon="8.9687495"><ele>336.42857142857144</ele><time>2026-03-28T08:20:23.206Z</time></trkpt><trkpt lat="45.7354957" lon="8.9686416"><ele>336.1428571428571</ele><time>2026-03-28T08:20:28.235Z</time></trkpt><trkpt lat="45.7355107" lon="8.9685529"><ele>335.8571428571429</ele><time>2026-03-28T08:20:32.283Z</time></trkpt><trkpt lat="45.7355265" lon="8.9684632"><ele>335.57142857142856</ele><time>2026-03-28T08:20:36.319Z</time></trkpt><trkpt lat="45.7355536" lon="8.9683627"><ele>335.2857142857143</ele><time>2026-03-28T08:20:41.253Z</time></trkpt><trkpt lat="45.7355616" lon="8.9682661"><ele>335.0</ele><time>2026-03-28T08:20:45.282Z</time></trkpt><trkpt lat="45.7355842" lon="8.9681652"><ele>334.85714285714283</ele><time>2026-03-28T08:20:50.282Z</time></trkpt><trkpt lat="45.7356235" lon="8.9680729"><ele>334.7142857142857</ele><time>2026-03-28T08:20:55.342Z</time></trkpt><trkpt lat="45.7356396" lon="8.9679789"><ele>334.57142857142856</ele><time>2026-03-28T08:21:00.144Z</time></trkpt><trkpt lat="45.7356433" lon="8.9678788"><ele>334.42857142857144</ele><time>2026-03-28T08:21:05.946Z</time></trkpt><trkpt lat="45.7356485" lon="8.9677721"><ele>334.2857142857143</ele><time>2026-03-28T08:21:10.766Z</time></trkpt><trkpt lat="45.7356563" lon="8.9676801"><ele>334.1428571428571</ele><time>2026-03-28T08:21:15.558Z</time></trkpt><trkpt lat="45.7356691" lon="8.9675912"><ele>334.0</ele><time>2026-03-28T08:21:19.451Z</time></trkpt><trkpt lat="45.7356905" lon="8.9674824"><ele>334.7142857142857</ele><time>2026-03-28T08:21:24.299Z</time></trkpt><trkpt lat="45.7356921" lon="8.9673818"><ele>335.42857142857144</ele><time>2026-03-28T08:21:28.204Z</time></trkpt><trkpt lat="45.7356838" lon="8.9672877"><ele>336.1428571428571</ele><time>2026-03-28T08:21:32.278Z</time></trkpt><trkpt lat="45.7356824" lon="8.9671913"><ele>336.8571428571429</ele><time>2026-03-28T08:21:37.318Z</time></trkpt><trkpt lat="45.7357013" lon="8.9671041"><ele>337.5714285714286</ele><time>2026-03-28T08:21:41.28Z</time></trkpt><trkpt lat="45.7357092" lon="8.967"><ele>338.2857142857143</ele><time>2026-03-28T08:21:48.237Z</time></trkpt><trkpt lat="45.7356827" lon="8.9668956"><ele>339.0</ele><time>2026-03-28T08:21:54.338Z</time></trkpt><trkpt lat="45.7356621" lon="8.9668021"><ele>340.0</ele><time>2026-03-28T08:21:59.261Z</time></trkpt><trkpt lat="45.7356511" lon="8.966687"><ele>341.0</ele><time>2026-03-28T08:22:03.319Z</time></trkpt><trkpt lat="45.7356295" lon="8.9665899"><ele>342.0</ele><time>2026-03-28T08:22:08.178Z</time></trkpt><trkpt lat="45.7356047" lon="8.9665021"><ele>343.0</ele><time>2026-03-28T08:22:14.275Z</time></trkpt><trkpt lat="45.7355386" lon="8.9664583"><ele>344.0</ele><time>2026-03-28T08:22:20.259Z</time></trkpt><trkpt lat="45.7354704" lon="8.9664504"><ele>345.0</ele><time>2026-03-28T08:22:24.545Z</time></trkpt><trkpt lat="45.7354043" lon="8.966399"><ele>346.0</ele><time>2026-03-28T08:22:29.443Z</time></trkpt><trkpt lat="45.7353808" lon="8.9663126"><ele>346.0</ele><time>2026-03-28T08:22:35.303Z</time></trkpt><trkpt lat="45.7353216" lon="8.9662397"><ele>346.0</ele><time>2026-03-28T08:22:46.099Z</time></trkpt><trkpt lat="45.735364" lon="8.9661534"><ele>346.0</ele><time>2026-03-28T08:22:52.281Z</time></trkpt><trkpt lat="45.7354322" lon="8.9661048"><ele>346.0</ele><time>2026-03-28T08:22:57.321Z</time></trkpt><trkpt lat="45.7355003" lon="8.9660558"><ele>346.0</ele><time>2026-03-28T08:23:01.321Z</time></trkpt><trkpt lat="45.7355668" lon="8.9659937"><ele>346.0</ele><time>2026-03-28T08:23:06.266Z</time></trkpt><trkpt lat="45.7356057" lon="8.9659194"><ele>346.0</ele><time>2026-03-28T08:23:10.141Z</time></trkpt><trkpt lat="45.7356682" lon="8.9658786"><ele>347.57142857142856</ele><time>2026-03-28T08:23:16.126Z</time></trkpt><trkpt lat="45.7357266" lon="8.9658388"><ele>349.14285714285717</ele><time>2026-03-28T08:23:22.243Z</time></trkpt><trkpt lat="45.7357951" lon="8.9657961"><ele>350.7142857142857</ele><time>2026-03-28T08:23:29.238Z</time></trkpt><trkpt lat="45.7358649" lon="8.9657801"><ele>352.2857142857143</ele><time>2026-03-28T08:23:34.318Z</time></trkpt><trkpt lat="45.7359282" lon="8.9657628"><ele>353.8571428571429</ele><time>2026-03-28T08:23:39.224Z</time></trkpt><trkpt lat="45.7359985" lon="8.9657628"><ele>355.42857142857144</ele><time>2026-03-28T08:23:44.159Z</time></trkpt><trkpt lat="45.736073" lon="8.9657338"><ele>357.0</ele><time>2026-03-28T08:23:49.292Z</time></trkpt><trkpt lat="45.7361361" lon="8.9656753"><ele>357.14285714285717</ele><time>2026-03-28T08:23:53.281Z</time></trkpt><trkpt lat="45.7361845" lon="8.9656157"><ele>357.2857142857143</ele><time>2026-03-28T08:23:56.326Z</time></trkpt><trkpt lat="45.7362162" lon="8.9655304"><ele>357.42857142857144</ele><time>2026-03-28T08:24:00.316Z</time></trkpt><trkpt lat="45.7362846" lon="8.965445"><ele>357.57142857142856</ele><time>2026-03-28T08:24:11.122Z</time></trkpt><trkpt lat="45.7363384" lon="8.9653682"><ele>357.7142857142857</ele><time>2026-03-28T08:24:15.064Z</time></trkpt><trkpt lat="45.7363739" lon="8.9652893"><ele>357.8571428571429</ele><time>2026-03-28T08:24:20.198Z</time></trkpt><trkpt lat="45.7363744" lon="8.9651979"><ele>358.0</ele><time>2026-03-28T08:24:26.259Z</time></trkpt><trkpt lat="45.7363738" lon="8.965095"><ele>358.7142857142857</ele><time>2026-03-28T08:24:29.293Z</time></trkpt><trkpt lat="45.7364034" lon="8.9649964"><ele>359.42857142857144</ele><time>2026-03-28T08:24:33.341Z</time></trkpt><trkpt lat="45.7364518" lon="8.9649193"><ele>360.1428571428571</ele><time>2026-03-28T08:24:39.202Z</time></trkpt><trkpt lat="45.7364987" lon="8.9648362"><ele>360.8571428571429</ele><time>2026-03-28T08:24:44.307Z</time></trkpt><trkpt lat="45.7365503" lon="8.9647594"><ele>361.57142857142856</ele><time>2026-03-28T08:24:49.138Z</time></trkpt><trkpt lat="45.7366028" lon="8.9647089"><ele>362.2857142857143</ele><time>2026-03-28T08:24:52.287Z</time></trkpt><trkpt lat="45.7366562" lon="8.9646572"><ele>363.0</ele><time>2026-03-28T08:24:55.331Z</time></trkpt><trkpt lat="45.7367125" lon="8.9646161"><ele>362.99999999999994</ele><time>2026-03-28T08:24:58.346Z</time></trkpt><trkpt lat="45.7367826" lon="8.9646072"><ele>363.0</ele><time>2026-03-28T08:25:02.245Z</time></trkpt><trkpt lat="45.7368527" lon="8.9645849"><ele>363.0</ele><time>2026-03-28T08:25:07.3Z</time></trkpt><trkpt lat="45.7369191" lon="8.9645351"><ele>363.0</ele><time>2026-03-28T08:25:12.235Z</time></trkpt><trkpt lat="45.7370007" lon="8.9645242"><ele>363.0</ele><time>2026-03-28T08:25:17.275Z</time></trkpt><trkpt lat="45.7370677" lon="8.9645341"><ele>362.99999999999994</ele><time>2026-03-28T08:25:22.314Z</time></trkpt><trkpt lat="45.7371327" lon="8.9645242"><ele>363.0</ele><time>2026-03-28T08:25:27.249Z</time></trkpt><trkpt lat="45.7371982" lon="8.964514"><ele>362.85714285714283</ele><time>2026-03-28T08:25:31.238Z</time></trkpt><trkpt lat="45.7372678" lon="8.9644772"><ele>362.7142857142857</ele><time>2026-03-28T08:25:35.333Z</time></trkpt><trkpt lat="45.7373417" lon="8.964488"><ele>362.57142857142856</ele><time>2026-03-28T08:25:39.322Z</time></trkpt><trkpt lat="45.7374087" lon="8.9644923"><ele>362.42857142857144</ele><time>2026-03-28T08:25:42.263Z</time></trkpt><trkpt lat="45.7374789" lon="8.9644985"><ele>362.2857142857143</ele><time>2026-03-28T08:25:45.306Z</time></trkpt><trkpt lat="45.7375577" lon="8.9644778"><ele>362.1428571428571</ele><time>2026-03-28T08:25:49.297Z</time></trkpt><trkpt lat="45.7376306" lon="8.9644609"><ele>362.0</ele><time>2026-03-28T08:25:53.287Z</time></trkpt><trkpt lat="45.7377105" lon="8.9644567"><ele>362.0</ele><time>2026-03-28T08:25:58.326Z</time></trkpt><trkpt lat="45.7377843" lon="8.9644634"><ele>362.0</ele><time>2026-03-28T08:26:02.345Z</time></trkpt><trkpt lat="45.7378632" lon="8.9644743"><ele>362.0</ele><time>2026-03-28T08:26:07.251Z</time></trkpt><trkpt lat="45.7379314" lon="8.9644745"><ele>362.0</ele><time>2026-03-28T08:26:11.24Z</time></trkpt><trkpt lat="45.7379981" lon="8.9645021"><ele>362.0</ele><time>2026-03-28T08:26:15.23Z</time></trkpt><trkpt lat="45.7380708" lon="8.9645575"><ele>362.0</ele><time>2026-03-28T08:26:22.229Z</time></trkpt><trkpt lat="45.7380906" lon="8.9646513"><ele>362.0</ele><time>2026-03-28T08:26:24.166Z</time></trkpt><trkpt lat="45.7381637" lon="8.9646578"><ele>362.0</ele><time>2026-03-28T08:26:28.186Z</time></trkpt><trkpt lat="45.738213" lon="8.9645936"><ele>362.0</ele><time>2026-03-28T08:26:42.187Z</time></trkpt><trkpt lat="45.7382331" lon="8.9645021"><ele>362.0</ele><time>2026-03-28T08:26:57.228Z</time></trkpt><trkpt lat="45.7382873" lon="8.9643274"><ele>362.0</ele><time>2026-03-28T08:27:04.262Z</time></trkpt><trkpt lat="45.7383336" lon="8.9642097"><ele>362.0</ele><time>2026-03-28T08:27:05.312Z</time></trkpt><trkpt lat="45.7383894" lon="8.9641382"><ele>362.0</ele><time>2026-03-28T08:27:09.301Z</time></trkpt><trkpt lat="45.7384583" lon="8.9639614"><ele>362.0</ele><time>2026-03-28T08:27:23.683Z</time></trkpt><trkpt lat="45.7384826" lon="8.9638602"><ele>362.0</ele><time>2026-03-28T08:27:30.116Z</time></trkpt><trkpt lat="45.73818" lon="8.96479"><ele>362.0</ele><time>2026-03-28T08:33:56.638Z</time></trkpt><trkpt lat="45.7382198" lon="8.964649"><ele>362.0</ele><time>2026-03-28T08:33:59.229Z</time></trkpt><trkpt lat="45.7382537" lon="8.9644871"><ele>362.0</ele><time>2026-03-28T08:34:01.229Z</time></trkpt><trkpt lat="45.7382503" lon="8.9645792"><ele>362.0</ele><time>2026-03-28T08:36:20.279Z</time></trkpt><trkpt lat="45.7382131" lon="8.9646732"><ele>362.0</ele><time>2026-03-28T08:37:05.227Z</time></trkpt><trkpt lat="45.7381529" lon="8.9647134"><ele>362.0</ele><time>2026-03-28T08:37:13.3Z</time></trkpt><trkpt lat="45.7380845" lon="8.9647342"><ele>362.0</ele><time>2026-03-28T08:37:24.325Z</time></trkpt><trkpt lat="45.7380199" lon="8.9647101"><ele>362.0</ele><time>2026-03-28T08:37:32.304Z</time></trkpt><trkpt lat="45.7379692" lon="8.9646457"><ele>362.0</ele><time>2026-03-28T08:37:39.234Z</time></trkpt><trkpt lat="45.737958" lon="8.9645406"><ele>362.0</ele><time>2026-03-28T08:37:44.274Z</time></trkpt><trkpt lat="45.7379055" lon="8.9644861"><ele>362.0</ele><time>2026-03-28T08:37:50.259Z</time></trkpt><trkpt lat="45.737842" lon="8.9644465"><ele>362.0</ele><time>2026-03-28T08:37:55.299Z</time></trkpt><trkpt lat="45.7377762" lon="8.9644523"><ele>362.0</ele><time>2026-03-28T08:38:02.333Z</time></trkpt><trkpt lat="45.7377078" lon="8.9644917"><ele>362.0</ele><time>2026-03-28T08:38:07.232Z</time></trkpt><trkpt lat="45.7376379" lon="8.9645045"><ele>362.0</ele><time>2026-03-28T08:38:12.166Z</time></trkpt><trkpt lat="45.7375692" lon="8.9645065"><ele>362.0</ele><time>2026-03-28T08:38:16.297Z</time></trkpt><trkpt lat="45.7375052" lon="8.9644568"><ele>362.0</ele><time>2026-03-28T08:38:20.287Z</time></trkpt><trkpt lat="45.7374336" lon="8.9644818"><ele>362.0</ele><time>2026-03-28T08:38:23.229Z</time></trkpt><trkpt lat="45.73737" lon="8.9645067"><ele>362.0</ele><time>2026-03-28T08:38:27.228Z</time></trkpt><trkpt lat="45.7372921" lon="8.9645065"><ele>362.0</ele><time>2026-03-28T08:38:33.307Z</time></trkpt><trkpt lat="45.7372123" lon="8.9645228"><ele>362.0</ele><time>2026-03-28T08:38:39.246Z</time></trkpt><trkpt lat="45.7371464" lon="8.964522"><ele>362.0</ele><time>2026-03-28T08:38:45.278Z</time></trkpt><trkpt lat="45.7370786" lon="8.9645526"><ele>362.0</ele><time>2026-03-28T08:38:50.318Z</time></trkpt><trkpt lat="45.7370079" lon="8.9645872"><ele>362.0</ele><time>2026-03-28T08:38:57.325Z</time></trkpt><trkpt lat="45.7369396" lon="8.9645899"><ele>362.0</ele><time>2026-03-28T08:39:03.188Z</time></trkpt><trkpt lat="45.7368729" lon="8.9645947"><ele>362.0</ele><time>2026-03-28T08:39:09.087Z</time></trkpt><trkpt lat="45.7368149" lon="8.9646372"><ele>362.0</ele><time>2026-03-28T08:39:14.843Z</time></trkpt><trkpt lat="45.7367527" lon="8.9646853"><ele>362.1428571428571</ele><time>2026-03-28T08:39:19.769Z</time></trkpt><trkpt lat="45.7366984" lon="8.9647458"><ele>362.2857142857143</ele><time>2026-03-28T08:39:25.782Z</time></trkpt><trkpt lat="45.7366432" lon="8.9648042"><ele>362.42857142857144</ele><time>2026-03-28T08:39:32.512Z</time></trkpt><trkpt lat="45.7365836" lon="8.9648586"><ele>362.57142857142856</ele><time>2026-03-28T08:39:36.387Z</time></trkpt><trkpt lat="45.7365318" lon="8.9649169"><ele>362.7142857142857</ele><time>2026-03-28T08:39:40.167Z</time></trkpt><trkpt lat="45.7364772" lon="8.964984"><ele>362.85714285714283</ele><time>2026-03-28T08:39:44.825Z</time></trkpt><trkpt lat="45.7364504" lon="8.9650744"><ele>363.0</ele><time>2026-03-28T08:39:49.645Z</time></trkpt><trkpt lat="45.7364229" lon="8.9651678"><ele>362.2857142857143</ele><time>2026-03-28T08:39:55.313Z</time></trkpt><trkpt lat="45.73641" lon="8.9652564"><ele>361.57142857142856</ele><time>2026-03-28T08:39:59.303Z</time></trkpt><trkpt lat="45.7363911" lon="8.9653574"><ele>360.8571428571429</ele><time>2026-03-28T08:40:03.285Z</time></trkpt><trkpt lat="45.7363686" lon="8.9654651"><ele>360.1428571428571</ele><time>2026-03-28T08:40:08.333Z</time></trkpt><trkpt lat="45.7363467" lon="8.9655563"><ele>359.42857142857144</ele><time>2026-03-28T08:40:15.246Z</time></trkpt><trkpt lat="45.7362956" lon="8.9656276"><ele>358.7142857142857</ele><time>2026-03-28T08:40:21.01Z</time></trkpt><trkpt lat="45.7362336" lon="8.9656741"><ele>358.0</ele><time>2026-03-28T08:40:25.888Z</time></trkpt><trkpt lat="45.7361755" lon="8.96572"><ele>358.00000000000006</ele><time>2026-03-28T08:40:32.272Z</time></trkpt><trkpt lat="45.7361086" lon="8.9657292"><ele>358.0</ele><time>2026-03-28T08:40:38.257Z</time></trkpt><trkpt lat="45.7360285" lon="8.9657481"><ele>358.0</ele><time>2026-03-28T08:40:42.343Z</time></trkpt><trkpt lat="45.7359487" lon="8.9658008"><ele>358.0</ele><time>2026-03-28T08:40:46.269Z</time></trkpt><trkpt lat="45.7358865" lon="8.9658437"><ele>358.0</ele><time>2026-03-28T08:40:50.151Z</time></trkpt><trkpt lat="45.7358157" lon="8.9658774"><ele>358.00000000000006</ele><time>2026-03-28T08:40:54.102Z</time></trkpt><trkpt lat="45.7357527" lon="8.9658939"><ele>358.0</ele><time>2026-03-28T08:40:57.986Z</time></trkpt><trkpt lat="45.7356824" lon="8.9659152"><ele>357.8571428571429</ele><time>2026-03-28T08:41:02.226Z</time></trkpt><trkpt lat="45.7356239" lon="8.9658782"><ele>357.7142857142857</ele><time>2026-03-28T08:41:06.168Z</time></trkpt><trkpt lat="45.7355632" lon="8.9658252"><ele>357.57142857142856</ele><time>2026-03-28T08:41:10.28Z</time></trkpt><trkpt lat="45.7355022" lon="8.9657579"><ele>357.42857142857144</ele><time>2026-03-28T08:41:14.269Z</time></trkpt><trkpt lat="45.7354826" lon="8.9656696"><ele>357.2857142857143</ele><time>2026-03-28T08:41:18.259Z</time></trkpt><trkpt lat="45.7355163" lon="8.9657483"><ele>357.14285714285717</ele><time>2026-03-28T08:44:06.249Z</time></trkpt><trkpt lat="45.7354822" lon="8.9658385"><ele>357.0</ele><time>2026-03-28T08:44:13.208Z</time></trkpt><trkpt lat="45.7354496" lon="8.9659162"><ele>355.42857142857144</ele><time>2026-03-28T08:44:17.066Z</time></trkpt><trkpt lat="45.7354381" lon="8.9660129"><ele>353.8571428571429</ele><time>2026-03-28T08:44:21.884Z</time></trkpt><trkpt lat="45.7354201" lon="8.9661022"><ele>352.2857142857143</ele><time>2026-03-28T08:44:26.628Z</time></trkpt><trkpt lat="45.7353934" lon="8.966193"><ele>350.7142857142857</ele><time>2026-03-28T08:44:31.41Z</time></trkpt><trkpt lat="45.7353918" lon="8.9662925"><ele>349.14285714285717</ele><time>2026-03-28T08:44:40.087Z</time></trkpt><trkpt lat="45.7354216" lon="8.9663733"><ele>347.57142857142856</ele><time>2026-03-28T08:44:45.871Z</time></trkpt><trkpt lat="45.7354922" lon="8.9663967"><ele>346.0</ele><time>2026-03-28T08:44:52.669Z</time></trkpt><trkpt lat="45.7355519" lon="8.9664261"><ele>346.0</ele><time>2026-03-28T08:44:57.488Z</time></trkpt><trkpt lat="45.7356068" lon="8.9664896"><ele>346.0</ele><time>2026-03-28T08:45:02.326Z</time></trkpt><trkpt lat="45.7356512" lon="8.9665569"><ele>346.0</ele><time>2026-03-28T08:45:06.183Z</time></trkpt><trkpt lat="45.7356831" lon="8.9666476"><ele>346.0</ele><time>2026-03-28T08:45:11.088Z</time></trkpt><trkpt lat="45.7356911" lon="8.9667564"><ele>346.0</ele><time>2026-03-28T08:45:15.935Z</time></trkpt><trkpt lat="45.7357064" lon="8.9668577"><ele>346.0</ele><time>2026-03-28T08:45:21.683Z</time></trkpt><trkpt lat="45.7357027" lon="8.9669682"><ele>346.0</ele><time>2026-03-28T08:45:26.503Z</time></trkpt><trkpt lat="45.7356914" lon="8.9670661"><ele>345.0</ele><time>2026-03-28T08:45:30.35Z</time></trkpt><trkpt lat="45.735705" lon="8.9671779"><ele>344.0</ele><time>2026-03-28T08:45:35.151Z</time></trkpt><trkpt lat="45.7357149" lon="8.9672765"><ele>343.0</ele><time>2026-03-28T08:45:38.994Z</time></trkpt><trkpt lat="45.7356978" lon="8.9673731"><ele>342.0</ele><time>2026-03-28T08:45:42.806Z</time></trkpt><trkpt lat="45.7356823" lon="8.9674718"><ele>341.0</ele><time>2026-03-28T08:45:46.623Z</time></trkpt><trkpt lat="45.7356616" lon="8.9675769"><ele>340.0</ele><time>2026-03-28T08:45:50.45Z</time></trkpt><trkpt lat="45.7356509" lon="8.9676885"><ele>339.0</ele><time>2026-03-28T08:45:54.326Z</time></trkpt><trkpt lat="45.7356407" lon="8.9677994"><ele>338.4285714285714</ele><time>2026-03-28T08:45:58.162Z</time></trkpt><trkpt lat="45.7356209" lon="8.9679147"><ele>337.8571428571429</ele><time>2026-03-28T08:46:01.991Z</time></trkpt><trkpt lat="45.7356191" lon="8.9680229"><ele>337.2857142857143</ele><time>2026-03-28T08:46:05.809Z</time></trkpt><trkpt lat="45.7356189" lon="8.968117"><ele>336.71428571428567</ele><time>2026-03-28T08:46:09.645Z</time></trkpt><trkpt lat="45.7355894" lon="8.9682159"><ele>336.1428571428571</ele><time>2026-03-28T08:46:13.444Z</time></trkpt><trkpt lat="45.735556" lon="8.9683131"><ele>335.57142857142856</ele><time>2026-03-28T08:46:17.27Z</time></trkpt><trkpt lat="45.7355302" lon="8.968413"><ele>335.0</ele><time>2026-03-28T08:46:21.093Z</time></trkpt><trkpt lat="45.7355209" lon="8.9685174"><ele>334.99999999999994</ele><time>2026-03-28T08:46:25.258Z</time></trkpt><trkpt lat="45.7355154" lon="8.9686133"><ele>335.0</ele><time>2026-03-28T08:46:29.233Z</time></trkpt><trkpt lat="45.7354931" lon="8.9686982"><ele>335.0</ele><time>2026-03-28T08:46:33.049Z</time></trkpt><trkpt lat="45.735471" lon="8.9687897"><ele>335.0</ele><time>2026-03-28T08:46:36.924Z</time></trkpt><trkpt lat="45.7354543" lon="8.9688883"><ele>335.0</ele><time>2026-03-28T08:46:40.722Z</time></trkpt><trkpt lat="45.7354484" lon="8.9689796"><ele>334.99999999999994</ele><time>2026-03-28T08:46:44.502Z</time></trkpt><trkpt lat="45.7354365" lon="8.9690823"><ele>335.0</ele><time>2026-03-28T08:46:48.883Z</time></trkpt><trkpt lat="45.7354263" lon="8.9691802"><ele>335.2857142857143</ele><time>2026-03-28T08:46:53.227Z</time></trkpt><trkpt lat="45.7354238" lon="8.9692894"><ele>335.57142857142856</ele><time>2026-03-28T08:46:58.331Z</time></trkpt><trkpt lat="45.7354124" lon="8.969394"><ele>335.8571428571429</ele><time>2026-03-28T08:47:03.229Z</time></trkpt><trkpt lat="45.7354222" lon="8.9695041"><ele>336.1428571428571</ele><time>2026-03-28T08:47:08.211Z</time></trkpt><trkpt lat="45.7354296" lon="8.9696167"><ele>336.42857142857144</ele><time>2026-03-28T08:47:13.239Z</time></trkpt><trkpt lat="45.7354476" lon="8.9697125"><ele>336.7142857142857</ele><time>2026-03-28T08:47:17.229Z</time></trkpt><trkpt lat="45.7354717" lon="8.9698108"><ele>337.0</ele><time>2026-03-28T08:47:21.306Z</time></trkpt><trkpt lat="45.7354913" lon="8.9698979"><ele>337.00000000000006</ele><time>2026-03-28T08:47:25.21Z</time></trkpt><trkpt lat="45.7355327" lon="8.9699738"><ele>337.0</ele><time>2026-03-28T08:47:30.126Z</time></trkpt><trkpt lat="45.7355365" lon="8.9700643"><ele>337.0</ele><time>2026-03-28T08:47:34.238Z</time></trkpt><trkpt lat="45.7355494" lon="8.9701764"><ele>337.0</ele><time>2026-03-28T08:47:39.277Z</time></trkpt><trkpt lat="45.7355573" lon="8.9702764"><ele>337.0</ele><time>2026-03-28T08:47:43.267Z</time></trkpt><trkpt lat="45.7355501" lon="8.9703784"><ele>337.00000000000006</ele><time>2026-03-28T08:47:47.256Z</time></trkpt><trkpt lat="45.7355308" lon="8.9704821"><ele>337.0</ele><time>2026-03-28T08:47:52.184Z</time></trkpt><trkpt lat="45.7355121" lon="8.9705704"><ele>338.5714285714286</ele><time>2026-03-28T08:47:56.986Z</time></trkpt><trkpt lat="45.7354878" lon="8.970654"><ele>340.14285714285717</ele><time>2026-03-28T08:48:03.952Z</time></trkpt><trkpt lat="45.7354907" lon="8.9707463"><ele>341.7142857142857</ele><time>2026-03-28T08:48:09.87Z</time></trkpt><trkpt lat="45.7354885" lon="8.9708437"><ele>343.28571428571433</ele><time>2026-03-28T08:48:14.765Z</time></trkpt><trkpt lat="45.7354585" lon="8.9709401"><ele>344.8571428571429</ele><time>2026-03-28T08:48:19.642Z</time></trkpt><trkpt lat="45.735434" lon="8.9710272"><ele>346.42857142857144</ele><time>2026-03-28T08:48:24.53Z</time></trkpt><trkpt lat="45.7354004" lon="8.9711212"><ele>348.0</ele><time>2026-03-28T08:48:30.486Z</time></trkpt><trkpt lat="45.7354082" lon="8.971025"><ele>348.0</ele><time>2026-03-28T08:48:48.61Z</time></trkpt><trkpt lat="45.7354282" lon="8.9709215"><ele>348.0</ele><time>2026-03-28T08:48:54.623Z</time></trkpt><trkpt lat="45.7354781" lon="8.9708398"><ele>348.0</ele><time>2026-03-28T08:48:59.043Z</time></trkpt><trkpt lat="45.7355502" lon="8.9707952"><ele>348.0</ele><time>2026-03-28T08:49:01.925Z</time></trkpt><trkpt lat="45.735613" lon="8.970754"><ele>348.0</ele><time>2026-03-28T08:49:04.866Z</time></trkpt><trkpt lat="45.7356863" lon="8.9707476"><ele>348.0</ele><time>2026-03-28T08:49:08.788Z</time></trkpt><trkpt lat="45.7357556" lon="8.9707429"><ele>348.0</ele><time>2026-03-28T08:49:12.691Z</time></trkpt><trkpt lat="45.7358245" lon="8.970728"><ele>348.0</ele><time>2026-03-28T08:49:16.604Z</time></trkpt><trkpt lat="45.7358936" lon="8.9707498"><ele>348.0</ele><time>2026-03-28T08:49:20.604Z</time></trkpt><trkpt lat="45.7359653" lon="8.9707927"><ele>348.0</ele><time>2026-03-28T08:49:24.565Z</time></trkpt><trkpt lat="45.7360385" lon="8.9708173"><ele>348.0</ele><time>2026-03-28T08:49:28.526Z</time></trkpt><trkpt lat="45.7361041" lon="8.970828"><ele>348.0</ele><time>2026-03-28T08:49:32.469Z</time></trkpt><trkpt lat="45.7361786" lon="8.9708297"><ele>348.0</ele><time>2026-03-28T08:49:37.363Z</time></trkpt><trkpt lat="45.736243" lon="8.9708287"><ele>348.0</ele><time>2026-03-28T08:49:41.325Z</time></trkpt><trkpt lat="45.7363204" lon="8.970846"><ele>349.2857142857143</ele><time>2026-03-28T08:49:46.231Z</time></trkpt><trkpt lat="45.7363818" lon="8.9708818"><ele>350.57142857142856</ele><time>2026-03-28T08:49:50.144Z</time></trkpt><trkpt lat="45.7364442" lon="8.9709133"><ele>351.8571428571429</ele><time>2026-03-28T08:49:54.124Z</time></trkpt><trkpt lat="45.7365065" lon="8.9709672"><ele>353.1428571428571</ele><time>2026-03-28T08:49:58.067Z</time></trkpt><trkpt lat="45.7365733" lon="8.9709942"><ele>354.42857142857144</ele><time>2026-03-28T08:50:01.994Z</time></trkpt><trkpt lat="45.7366362" lon="8.9710171"><ele>355.7142857142857</ele><time>2026-03-28T08:50:05.931Z</time></trkpt><trkpt lat="45.7367022" lon="8.9710359"><ele>357.0</ele><time>2026-03-28T08:50:09.911Z</time></trkpt><trkpt lat="45.7367704" lon="8.9710791"><ele>357.0</ele><time>2026-03-28T08:50:14.826Z</time></trkpt><trkpt lat="45.7368106" lon="8.9711664"><ele>357.0</ele><time>2026-03-28T08:50:20.591Z</time></trkpt><trkpt lat="45.7368667" lon="8.9712193"><ele>357.0</ele><time>2026-03-28T08:50:27.062Z</time></trkpt><trkpt lat="45.7369243" lon="8.9712711"><ele>357.0</ele><time>2026-03-28T08:50:33.964Z</time></trkpt><trkpt lat="45.7369816" lon="8.9713207"><ele>357.0</ele><time>2026-03-28T08:50:40.262Z</time></trkpt><trkpt lat="45.7370296" lon="8.9713876"><ele>357.0</ele><time>2026-03-28T08:50:45.318Z</time></trkpt><trkpt lat="45.7370767" lon="8.9714554"><ele>357.0</ele><time>2026-03-28T08:50:49.309Z</time></trkpt><trkpt lat="45.7371046" lon="8.9715589"><ele>356.42857142857144</ele><time>2026-03-28T08:50:55.457Z</time></trkpt><trkpt lat="45.7371246" lon="8.9716624"><ele>355.8571428571429</ele><time>2026-03-28T08:50:58.483Z</time></trkpt><trkpt lat="45.7371841" lon="8.9717318"><ele>355.2857142857143</ele><time>2026-03-28T08:51:02.462Z</time></trkpt><trkpt lat="45.7372527" lon="8.9717938"><ele>354.7142857142857</ele><time>2026-03-28T08:51:06.576Z</time></trkpt><trkpt lat="45.7373072" lon="8.9718435"><ele>354.14285714285717</ele><time>2026-03-28T08:51:10.557Z</time></trkpt><trkpt lat="45.7373784" lon="8.9718683"><ele>353.57142857142856</ele><time>2026-03-28T08:51:16.029Z</time></trkpt><trkpt lat="45.7374424" lon="8.9719191"><ele>353.0</ele><time>2026-03-28T08:51:21.039Z</time></trkpt><trkpt lat="45.7375002" lon="8.971958"><ele>353.85714285714283</ele><time>2026-03-28T08:51:25.991Z</time></trkpt><trkpt lat="45.7375681" lon="8.9720167"><ele>354.7142857142857</ele><time>2026-03-28T08:51:30.983Z</time></trkpt><trkpt lat="45.7376279" lon="8.9720766"><ele>355.57142857142856</ele><time>2026-03-28T08:51:34.992Z</time></trkpt><trkpt lat="45.7376972" lon="8.9721248"><ele>356.42857142857144</ele><time>2026-03-28T08:51:38.799Z</time></trkpt><trkpt lat="45.7377668" lon="8.972152"><ele>357.28571428571433</ele><time>2026-03-28T08:51:42.76Z</time></trkpt><trkpt lat="45.7378276" lon="8.9721771"><ele>358.14285714285717</ele><time>2026-03-28T08:51:46.138Z</time></trkpt><trkpt lat="45.7379013" lon="8.9722014"><ele>359.0</ele><time>2026-03-28T08:51:51.253Z</time></trkpt><trkpt lat="45.7379684" lon="8.9722184"><ele>359.0</ele><time>2026-03-28T08:51:56.292Z</time></trkpt><trkpt lat="45.7380316" lon="8.9722604"><ele>359.0</ele><time>2026-03-28T08:52:00.36Z</time></trkpt><trkpt lat="45.7381069" lon="8.9723001"><ele>359.0</ele><time>2026-03-28T08:52:05.321Z</time></trkpt><trkpt lat="45.7381708" lon="8.9722916"><ele>359.0</ele><time>2026-03-28T08:52:10.256Z</time></trkpt><trkpt lat="45.738245" lon="8.9723391"><ele>359.0</ele><time>2026-03-28T08:52:15.295Z</time></trkpt><trkpt lat="45.7382988" lon="8.9723968"><ele>359.0</ele><time>2026-03-28T08:52:20.317Z</time></trkpt><trkpt lat="45.7383718" lon="8.9724015"><ele>359.0</ele><time>2026-03-28T08:52:25.261Z</time></trkpt><trkpt lat="45.738438" lon="8.9723884"><ele>359.0</ele><time>2026-03-28T08:52:31.201Z</time></trkpt><trkpt lat="45.7385044" lon="8.9723981"><ele>359.0</ele><time>2026-03-28T08:52:36.18Z</time></trkpt><trkpt lat="45.7385888" lon="8.9723929"><ele>359.0</ele><time>2026-03-28T08:52:41.182Z</time></trkpt><trkpt lat="45.7386601" lon="8.9723805"><ele>359.0</ele><time>2026-03-28T08:52:45.142Z</time></trkpt><trkpt lat="45.7387299" lon="8.9723809"><ele>359.0</ele><time>2026-03-28T08:52:49.311Z</time></trkpt><trkpt lat="45.7387949" lon="8.9724084"><ele>359.0</ele><time>2026-03-28T08:52:53.301Z</time></trkpt><trkpt lat="45.7388585" lon="8.9724156"><ele>359.0</ele><time>2026-03-28T08:52:57.29Z</time></trkpt><trkpt lat="45.7389328" lon="8.9724067"><ele>359.0</ele><time>2026-03-28T08:53:02.329Z</time></trkpt><trkpt lat="45.7390013" lon="8.9723873"><ele>359.0</ele><time>2026-03-28T08:53:07.264Z</time></trkpt><trkpt lat="45.7390673" lon="8.9723242"><ele>359.0</ele><time>2026-03-28T08:53:12.303Z</time></trkpt><trkpt lat="45.739135" lon="8.972316"><ele>359.0</ele><time>2026-03-28T08:53:18.287Z</time></trkpt><trkpt lat="45.7391253" lon="8.972218"><ele>359.0</ele><time>2026-03-28T08:53:26.266Z</time></trkpt><trkpt lat="45.7391228" lon="8.9721217"><ele>359.0</ele><time>2026-03-28T08:53:32.299Z</time></trkpt><trkpt lat="45.7391542" lon="8.9720217"><ele>359.0</ele><time>2026-03-28T08:53:39.2Z</time></trkpt><trkpt lat="45.7391865" lon="8.9719369"><ele>359.0</ele><time>2026-03-28T08:53:44.324Z</time></trkpt><trkpt lat="45.7392355" lon="8.9718706"><ele>359.0</ele><time>2026-03-28T08:53:49.258Z</time></trkpt><trkpt lat="45.7392887" lon="8.9718118"><ele>359.0</ele><time>2026-03-28T08:53:53.248Z</time></trkpt><trkpt lat="45.7393499" lon="8.9717687"><ele>359.0</ele><time>2026-03-28T08:53:57.342Z</time></trkpt><trkpt lat="45.7394172" lon="8.9717339"><ele>359.0</ele><time>2026-03-28T08:54:01.332Z</time></trkpt><trkpt lat="45.739476" lon="8.9716917"><ele>359.0</ele><time>2026-03-28T08:54:06.266Z</time></trkpt><trkpt lat="45.7395492" lon="8.9716685"><ele>359.0</ele><time>2026-03-28T08:54:12.25Z</time></trkpt><trkpt lat="45.7396137" lon="8.9716352"><ele>359.57142857142856</ele><time>2026-03-28T08:54:16.356Z</time></trkpt><trkpt lat="45.7396816" lon="8.9715921"><ele>360.14285714285717</ele><time>2026-03-28T08:54:20.334Z</time></trkpt><trkpt lat="45.739743" lon="8.9715643"><ele>360.71428571428567</ele><time>2026-03-28T08:54:24.326Z</time></trkpt><trkpt lat="45.7398175" lon="8.97157"><ele>361.2857142857143</ele><time>2026-03-28T08:54:28.313Z</time></trkpt><trkpt lat="45.739884" lon="8.971566"><ele>361.85714285714283</ele><time>2026-03-28T08:54:31.283Z</time></trkpt><trkpt lat="45.7399529" lon="8.9715308"><ele>362.4285714285714</ele><time>2026-03-28T08:54:34.262Z</time></trkpt><trkpt lat="45.7400259" lon="8.9714731"><ele>363.0</ele><time>2026-03-28T08:54:38.165Z</time></trkpt><trkpt lat="45.7400951" lon="8.9714189"><ele>362.99999999999994</ele><time>2026-03-28T08:54:42.04Z</time></trkpt><trkpt lat="45.7401502" lon="8.9713427"><ele>363.0</ele><time>2026-03-28T08:54:47.317Z</time></trkpt><trkpt lat="45.7402081" lon="8.9713027"><ele>363.0</ele><time>2026-03-28T08:54:52.251Z</time></trkpt><trkpt lat="45.7402713" lon="8.9712732"><ele>363.0</ele><time>2026-03-28T08:54:56.241Z</time></trkpt><trkpt lat="45.7403333" lon="8.9712261"><ele>363.0</ele><time>2026-03-28T08:55:01.28Z</time></trkpt><trkpt lat="45.740408" lon="8.9711996"><ele>362.99999999999994</ele><time>2026-03-28T08:55:06.319Z</time></trkpt><trkpt lat="45.7404724" lon="8.971168"><ele>363.0</ele><time>2026-03-28T08:55:10.358Z</time></trkpt><trkpt lat="45.7405438" lon="8.9711537"><ele>362.85714285714283</ele><time>2026-03-28T08:55:15.321Z</time></trkpt><trkpt lat="45.740617" lon="8.9711717"><ele>362.7142857142857</ele><time>2026-03-28T08:55:20.218Z</time></trkpt><trkpt lat="45.7406847" lon="8.9711707"><ele>362.57142857142856</ele><time>2026-03-28T08:55:24.216Z</time></trkpt><trkpt lat="45.7407618" lon="8.9711617"><ele>362.42857142857144</ele><time>2026-03-28T08:55:28.262Z</time></trkpt><trkpt lat="45.7408337" lon="8.9711556"><ele>362.2857142857143</ele><time>2026-03-28T08:55:33.198Z</time></trkpt><trkpt lat="45.7409054" lon="8.9711493"><ele>362.1428571428571</ele><time>2026-03-28T08:55:38.256Z</time></trkpt><trkpt lat="45.7409787" lon="8.9711453"><ele>362.0</ele><time>2026-03-28T08:55:42.247Z</time></trkpt><trkpt lat="45.74105" lon="8.9711374"><ele>361.85714285714283</ele><time>2026-03-28T08:55:47.142Z</time></trkpt><trkpt lat="45.74112" lon="8.9711268"><ele>361.71428571428567</ele><time>2026-03-28T08:55:52.162Z</time></trkpt><trkpt lat="45.7411929" lon="8.9711144"><ele>361.57142857142856</ele><time>2026-03-28T08:55:57.144Z</time></trkpt><trkpt lat="45.7412677" lon="8.9711101"><ele>361.42857142857144</ele><time>2026-03-28T08:56:04.12Z</time></trkpt><trkpt lat="45.7413309" lon="8.9711225"><ele>361.2857142857143</ele><time>2026-03-28T08:56:09.218Z</time></trkpt><trkpt lat="45.7413939" lon="8.9711124"><ele>361.14285714285717</ele><time>2026-03-28T08:56:13.195Z</time></trkpt><trkpt lat="45.741473" lon="8.9711167"><ele>361.0</ele><time>2026-03-28T08:56:17.157Z</time></trkpt><trkpt lat="45.7415547" lon="8.9711027"><ele>361.0</ele><time>2026-03-28T08:56:21.278Z</time></trkpt><trkpt lat="45.7416333" lon="8.9711032"><ele>361.0</ele><time>2026-03-28T08:56:25.269Z</time></trkpt><trkpt lat="45.7417008" lon="8.971127"><ele>361.0</ele><time>2026-03-28T08:56:29.258Z</time></trkpt><trkpt lat="45.7417694" lon="8.971143"><ele>361.0</ele><time>2026-03-28T08:56:33.248Z</time></trkpt><trkpt lat="45.7418347" lon="8.9711516"><ele>361.0</ele><time>2026-03-28T08:56:37.237Z</time></trkpt><trkpt lat="45.7419141" lon="8.9711705"><ele>361.0</ele><time>2026-03-28T08:56:41.331Z</time></trkpt><trkpt lat="45.741982" lon="8.9711975"><ele>361.0</ele><time>2026-03-28T08:56:45.321Z</time></trkpt><trkpt lat="45.7420453" lon="8.9712104"><ele>361.0</ele><time>2026-03-28T08:56:49.283Z</time></trkpt><trkpt lat="45.7421093" lon="8.9712219"><ele>361.0</ele><time>2026-03-28T08:56:53.32Z</time></trkpt><trkpt lat="45.7421755" lon="8.9712529"><ele>361.0</ele><time>2026-03-28T08:56:57.244Z</time></trkpt><trkpt lat="45.7422379" lon="8.9712855"><ele>361.0</ele><time>2026-03-28T08:57:01.224Z</time></trkpt><trkpt lat="45.7423084" lon="8.9712966"><ele>361.0</ele><time>2026-03-28T08:57:06.157Z</time></trkpt><trkpt lat="45.7423748" lon="8.9713105"><ele>361.0</ele><time>2026-03-28T08:57:11.121Z</time></trkpt><trkpt lat="45.7424545" lon="8.9712962"><ele>361.0</ele><time>2026-03-28T08:57:16.019Z</time></trkpt><trkpt lat="45.7425189" lon="8.9712575"><ele>361.0</ele><time>2026-03-28T08:57:19.043Z</time></trkpt><trkpt lat="45.7425849" lon="8.9712064"><ele>361.0</ele><time>2026-03-28T08:57:22.058Z</time></trkpt><trkpt lat="45.7426526" lon="8.9711641"><ele>361.0</ele><time>2026-03-28T08:57:26.076Z</time></trkpt><trkpt lat="45.7426692" lon="8.9710766"><ele>361.0</ele><time>2026-03-28T08:57:33.082Z</time></trkpt><trkpt lat="45.7426633" lon="8.9709777"><ele>361.0</ele><time>2026-03-28T08:57:41.279Z</time></trkpt><trkpt lat="45.7426565" lon="8.9708739"><ele>361.0</ele><time>2026-03-28T08:57:49.336Z</time></trkpt><trkpt lat="45.7426741" lon="8.9707871"><ele>361.0</ele><time>2026-03-28T08:57:57.237Z</time></trkpt><trkpt lat="45.7426783" lon="8.9706961"><ele>360.0</ele><time>2026-03-28T08:58:02.276Z</time></trkpt><trkpt lat="45.7427169" lon="8.9706121"><ele>359.0</ele><time>2026-03-28T08:58:08.261Z</time></trkpt><trkpt lat="45.742766" lon="8.9705418"><ele>358.0</ele><time>2026-03-28T08:58:16.239Z</time></trkpt><trkpt lat="45.7428279" lon="8.9704979"><ele>357.0</ele><time>2026-03-28T08:58:22.329Z</time></trkpt><trkpt lat="45.7428829" lon="8.9705613"><ele>356.0</ele><time>2026-03-28T08:58:28.313Z</time></trkpt><trkpt lat="45.742951" lon="8.9705336"><ele>355.0</ele><time>2026-03-28T08:58:32.302Z</time></trkpt><trkpt lat="45.7429915" lon="8.9706242"><ele>354.0</ele><time>2026-03-28T08:58:38.286Z</time></trkpt><trkpt lat="45.7430279" lon="8.9707148"><ele>354.0</ele><time>2026-03-28T08:58:43.326Z</time></trkpt><trkpt lat="45.7430062" lon="8.9706223"><ele>354.0</ele><time>2026-03-28T08:59:07.303Z</time></trkpt><trkpt lat="45.7430324" lon="8.9705382"><ele>354.0</ele><time>2026-03-28T08:59:11.32Z</time></trkpt><trkpt lat="45.7430827" lon="8.9704738"><ele>354.0</ele><time>2026-03-28T08:59:14.295Z</time></trkpt><trkpt lat="45.7431386" lon="8.9704261"><ele>354.0</ele><time>2026-03-28T08:59:17.239Z</time></trkpt><trkpt lat="45.743198" lon="8.9703807"><ele>354.0</ele><time>2026-03-28T08:59:20.12Z</time></trkpt><trkpt lat="45.7432632" lon="8.9703553"><ele>354.0</ele><time>2026-03-28T08:59:23.202Z</time></trkpt><trkpt lat="45.7433427" lon="8.970367"><ele>354.0</ele><time>2026-03-28T08:59:27.221Z</time></trkpt><trkpt lat="45.7434065" lon="8.970375"><ele>354.0</ele><time>2026-03-28T08:59:30.254Z</time></trkpt><trkpt lat="45.7434876" lon="8.9703918"><ele>354.0</ele><time>2026-03-28T08:59:34.349Z</time></trkpt><trkpt lat="45.7435604" lon="8.9704054"><ele>354.0</ele><time>2026-03-28T08:59:38.338Z</time></trkpt><trkpt lat="45.7436315" lon="8.9704075"><ele>354.0</ele><time>2026-03-28T08:59:42.339Z</time></trkpt><trkpt lat="45.7437013" lon="8.970395"><ele>354.0</ele><time>2026-03-28T08:59:46.3Z</time></trkpt><trkpt lat="45.7437753" lon="8.9703929"><ele>354.0</ele><time>2026-03-28T08:59:51.228Z</time></trkpt><trkpt lat="45.74385" lon="8.970394"><ele>354.0</ele><time>2026-03-28T08:59:56.065Z</time></trkpt><trkpt lat="45.7439181" lon="8.9703817"><ele>354.0</ele><time>2026-03-28T09:00:00.044Z</time></trkpt><trkpt lat="45.7439806" lon="8.970363"><ele>354.0</ele><time>2026-03-28T09:00:04.024Z</time></trkpt><trkpt lat="45.7440575" lon="8.9703455"><ele>354.0</ele><time>2026-03-28T09:00:08.959Z</time></trkpt><trkpt lat="45.7441183" lon="8.9703143"><ele>354.0</ele><time>2026-03-28T09:00:12.957Z</time></trkpt><trkpt lat="45.7441849" lon="8.9702788"><ele>354.0</ele><time>2026-03-28T09:00:17.288Z</time></trkpt><trkpt lat="45.74426" lon="8.9702563"><ele>354.0</ele><time>2026-03-28T09:00:22.327Z</time></trkpt><trkpt lat="45.7443403" lon="8.9702549"><ele>354.8571428571429</ele><time>2026-03-28T09:00:27.341Z</time></trkpt><trkpt lat="45.7444046" lon="8.9702596"><ele>355.71428571428567</ele><time>2026-03-28T09:00:31.358Z</time></trkpt><trkpt lat="45.7444845" lon="8.970258"><ele>356.57142857142856</ele><time>2026-03-28T09:00:36.32Z</time></trkpt><trkpt lat="45.7445597" lon="8.9702581"><ele>357.42857142857144</ele><time>2026-03-28T09:00:41.322Z</time></trkpt><trkpt lat="45.7446304" lon="8.970265"><ele>358.28571428571433</ele><time>2026-03-28T09:00:46.238Z</time></trkpt><trkpt lat="45.7446909" lon="8.9702909"><ele>359.1428571428571</ele><time>2026-03-28T09:00:50.284Z</time></trkpt><trkpt lat="45.7447469" lon="8.9703393"><ele>360.0</ele><time>2026-03-28T09:00:54.226Z</time></trkpt><trkpt lat="45.7448068" lon="8.9704102"><ele>360.0</ele><time>2026-03-28T09:00:59.159Z</time></trkpt><trkpt lat="45.7448595" lon="8.9704923"><ele>360.0</ele><time>2026-03-28T09:01:04.084Z</time></trkpt><trkpt lat="45.7449084" lon="8.9705526"><ele>360.0</ele><time>2026-03-28T09:01:07.998Z</time></trkpt><trkpt lat="45.744959" lon="8.9706193"><ele>360.0</ele><time>2026-03-28T09:01:12.026Z</time></trkpt><trkpt lat="45.745013" lon="8.9706735"><ele>360.0</ele><time>2026-03-28T09:01:16.005Z</time></trkpt><trkpt lat="45.7450795" lon="8.9706968"><ele>360.0</ele><time>2026-03-28T09:01:20.023Z</time></trkpt><trkpt lat="45.7451532" lon="8.9706934"><ele>360.0</ele><time>2026-03-28T09:01:24.992Z</time></trkpt><trkpt lat="45.7452151" lon="8.9706743"><ele>360.57142857142856</ele><time>2026-03-28T09:01:29.308Z</time></trkpt><trkpt lat="45.7452838" lon="8.970633"><ele>361.14285714285717</ele><time>2026-03-28T09:01:34.347Z</time></trkpt><trkpt lat="45.7453532" lon="8.9706046"><ele>361.7142857142857</ele><time>2026-03-28T09:01:38.337Z</time></trkpt><trkpt lat="45.7454208" lon="8.9705731"><ele>362.2857142857143</ele><time>2026-03-28T09:01:43.282Z</time></trkpt><trkpt lat="45.7454806" lon="8.9705354"><ele>362.8571428571429</ele><time>2026-03-28T09:01:48.179Z</time></trkpt><trkpt lat="45.7455546" lon="8.9705106"><ele>363.42857142857144</ele><time>2026-03-28T09:01:53.198Z</time></trkpt><trkpt lat="45.7456263" lon="8.9704714"><ele>364.0</ele><time>2026-03-28T09:01:58.199Z</time></trkpt><trkpt lat="45.7457026" lon="8.9704364"><ele>364.0</ele><time>2026-03-28T09:02:03.106Z</time></trkpt><trkpt lat="45.7457612" lon="8.9704013"><ele>364.0</ele><time>2026-03-28T09:02:06.262Z</time></trkpt><trkpt lat="45.745833" lon="8.970352"><ele>364.0</ele><time>2026-03-28T09:02:10.252Z</time></trkpt><trkpt lat="45.7458975" lon="8.9703021"><ele>364.0</ele><time>2026-03-28T09:02:14.32Z</time></trkpt><trkpt lat="45.7459664" lon="8.9702582"><ele>364.0</ele><time>2026-03-28T09:02:19.245Z</time></trkpt><trkpt lat="45.7460374" lon="8.9702231"><ele>364.0</ele><time>2026-03-28T09:02:24.178Z</time></trkpt><trkpt lat="45.7461844" lon="8.9701438"><ele>364.14285714285717</ele><time>2026-03-28T09:04:57.284Z</time></trkpt><trkpt lat="45.746246" lon="8.9700981"><ele>364.2857142857143</ele><time>2026-03-28T09:05:01.238Z</time></trkpt><trkpt lat="45.7463152" lon="8.9700564"><ele>364.42857142857144</ele><time>2026-03-28T09:05:06.313Z</time></trkpt><trkpt lat="45.746381" lon="8.9700599"><ele>364.57142857142856</ele><time>2026-03-28T09:05:10.303Z</time></trkpt><trkpt lat="45.7464561" lon="8.9700463"><ele>364.7142857142857</ele><time>2026-03-28T09:05:15.306Z</time></trkpt><trkpt lat="45.7465232" lon="8.9700135"><ele>364.8571428571429</ele><time>2026-03-28T09:05:21.26Z</time></trkpt><trkpt lat="45.7465886" lon="8.9699999"><ele>365.0</ele><time>2026-03-28T09:05:27.121Z</time></trkpt><trkpt lat="45.746665" lon="8.9699871"><ele>364.33333333333337</ele><time>2026-03-28T09:05:30.938Z</time></trkpt><trkpt lat="45.7467298" lon="8.9699809"><ele>363.6666666666667</ele><time>2026-03-28T09:05:33.839Z</time></trkpt><trkpt lat="45.7468155" lon="8.969968"><ele>363.0</ele><time>2026-03-28T09:05:38.202Z</time></trkpt><trkpt lat="45.7468881" lon="8.9699485"><ele>362.3333333333333</ele><time>2026-03-28T09:05:42.323Z</time></trkpt><trkpt lat="45.7469613" lon="8.9699316"><ele>361.66666666666663</ele><time>2026-03-28T09:05:46.312Z</time></trkpt><trkpt lat="45.7470289" lon="8.9699356"><ele>361.0</ele><time>2026-03-28T09:05:50.217Z</time></trkpt><trkpt lat="45.7471117" lon="8.9699373"><ele>362.8571428571429</ele><time>2026-03-28T09:05:55.236Z</time></trkpt><trkpt lat="45.7471667" lon="8.9698897"><ele>364.71428571428567</ele><time>2026-03-28T09:06:00.275Z</time></trkpt><trkpt lat="45.7472249" lon="8.9698246"><ele>366.57142857142856</ele><time>2026-03-28T09:06:07.309Z</time></trkpt><trkpt lat="45.7472823" lon="8.9697648"><ele>368.42857142857144</ele><time>2026-03-28T09:06:11.298Z</time></trkpt><trkpt lat="45.7473322" lon="8.9696925"><ele>370.28571428571433</ele><time>2026-03-28T09:06:15.318Z</time></trkpt><trkpt lat="45.7473888" lon="8.969646"><ele>372.1428571428571</ele><time>2026-03-28T09:06:19.26Z</time></trkpt><trkpt lat="45.7474463" lon="8.9695998"><ele>374.0</ele><time>2026-03-28T09:06:24.138Z</time></trkpt><trkpt lat="45.747507" lon="8.9695708"><ele>374.0</ele><time>2026-03-28T09:06:28.305Z</time></trkpt><trkpt lat="45.7475728" lon="8.9695141"><ele>374.0</ele><time>2026-03-28T09:06:32.296Z</time></trkpt><trkpt lat="45.7476405" lon="8.9694676"><ele>374.0</ele><time>2026-03-28T09:06:36.239Z</time></trkpt><trkpt lat="45.7477007" lon="8.9694193"><ele>374.0</ele><time>2026-03-28T09:06:40.076Z</time></trkpt><trkpt lat="45.7477733" lon="8.969398"><ele>374.0</ele><time>2026-03-28T09:06:44.963Z</time></trkpt><trkpt lat="45.7478468" lon="8.9693683"><ele>374.0</ele><time>2026-03-28T09:06:49.784Z</time></trkpt><trkpt lat="45.7479129" lon="8.9693527"><ele>374.0</ele><time>2026-03-28T09:06:54.498Z</time></trkpt><trkpt lat="45.7479861" lon="8.9693398"><ele>373.57142857142856</ele><time>2026-03-28T09:06:59.843Z</time></trkpt><trkpt lat="45.7480579" lon="8.9693251"><ele>373.14285714285717</ele><time>2026-03-28T09:07:05.685Z</time></trkpt><trkpt lat="45.7481228" lon="8.9692918"><ele>372.7142857142857</ele><time>2026-03-28T09:07:11.038Z</time></trkpt><trkpt lat="45.748188" lon="8.9692617"><ele>372.2857142857143</ele><time>2026-03-28T09:07:15.325Z</time></trkpt><trkpt lat="45.7482451" lon="8.9691942"><ele>371.8571428571429</ele><time>2026-03-28T09:07:21.121Z</time></trkpt><trkpt lat="45.7483169" lon="8.9691536"><ele>371.42857142857144</ele><time>2026-03-28T09:07:26.261Z</time></trkpt><trkpt lat="45.7483835" lon="8.9691249"><ele>371.0</ele><time>2026-03-28T09:07:29.306Z</time></trkpt><trkpt lat="45.7484458" lon="8.9690743"><ele>371.0</ele><time>2026-03-28T09:07:32.323Z</time></trkpt><trkpt lat="45.7485122" lon="8.9690385"><ele>371.0</ele><time>2026-03-28T09:07:36.218Z</time></trkpt><trkpt lat="45.7485788" lon="8.9690058"><ele>371.0</ele><time>2026-03-28T09:07:42.096Z</time></trkpt><trkpt lat="45.7486486" lon="8.9689814"><ele>371.0</ele><time>2026-03-28T09:07:48.024Z</time></trkpt><trkpt lat="45.7487056" lon="8.9689418"><ele>371.0</ele><time>2026-03-28T09:07:52.938Z</time></trkpt><trkpt lat="45.7487639" lon="8.968892"><ele>371.0</ele><time>2026-03-28T09:07:56.919Z</time></trkpt><trkpt lat="45.7488336" lon="8.9688295"><ele>371.0</ele><time>2026-03-28T09:08:00.879Z</time></trkpt><trkpt lat="45.7488902" lon="8.9687851"><ele>371.42857142857144</ele><time>2026-03-28T09:08:04.802Z</time></trkpt><trkpt lat="45.7489501" lon="8.9687158"><ele>371.8571428571429</ele><time>2026-03-28T09:08:09.737Z</time></trkpt><trkpt lat="45.7490197" lon="8.9686813"><ele>372.2857142857143</ele><time>2026-03-28T09:08:13.745Z</time></trkpt><trkpt lat="45.7490871" lon="8.968643"><ele>372.7142857142857</ele><time>2026-03-28T09:08:17.82Z</time></trkpt><trkpt lat="45.7491415" lon="8.9685891"><ele>373.14285714285717</ele><time>2026-03-28T09:08:22.871Z</time></trkpt><trkpt lat="45.7492011" lon="8.9685229"><ele>373.57142857142856</ele><time>2026-03-28T09:08:27.899Z</time></trkpt><trkpt lat="45.7492521" lon="8.9684509"><ele>374.0</ele><time>2026-03-28T09:08:32.823Z</time></trkpt><trkpt lat="45.7492993" lon="8.9683672"><ele>372.7142857142857</ele><time>2026-03-28T09:08:38.817Z</time></trkpt><trkpt lat="45.7493522" lon="8.9683128"><ele>371.42857142857144</ele><time>2026-03-28T09:08:43.8Z</time></trkpt><trkpt lat="45.7494196" lon="8.9682619"><ele>370.14285714285717</ele><time>2026-03-28T09:08:48.802Z</time></trkpt><trkpt lat="45.7494628" lon="8.9681854"><ele>368.8571428571429</ele><time>2026-03-28T09:09:00.301Z</time></trkpt><trkpt lat="45.7495025" lon="8.9680965"><ele>367.57142857142856</ele><time>2026-03-28T09:09:02.181Z</time></trkpt><trkpt lat="45.7495536" lon="8.9680112"><ele>366.28571428571433</ele><time>2026-03-28T09:09:05.262Z</time></trkpt><trkpt lat="45.7496057" lon="8.9679415"><ele>365.0</ele><time>2026-03-28T09:09:10.302Z</time></trkpt><trkpt lat="45.7496689" lon="8.9679535"><ele>365.00000000000006</ele><time>2026-03-28T09:09:20.275Z</time></trkpt><trkpt lat="45.7497699" lon="8.9679419"><ele>365.0</ele><time>2026-03-28T09:10:43.228Z</time></trkpt><trkpt lat="45.7498226" lon="8.9678901"><ele>365.0</ele><time>2026-03-28T09:13:04.065Z</time></trkpt><trkpt lat="45.7498845" lon="8.9678559"><ele>365.0</ele><time>2026-03-28T09:13:14.294Z</time></trkpt><trkpt lat="45.749949" lon="8.9678365"><ele>365.0</ele><time>2026-03-28T09:13:21.358Z</time></trkpt><trkpt lat="45.7500106" lon="8.9678116"><ele>365.00000000000006</ele><time>2026-03-28T09:13:28.257Z</time></trkpt><trkpt lat="45.750065" lon="8.967765"><ele>365.0</ele><time>2026-03-28T09:13:36.229Z</time></trkpt><trkpt lat="45.7501233" lon="8.9677067"><ele>365.00000000000006</ele><time>2026-03-28T09:13:40.228Z</time></trkpt><trkpt lat="45.7501883" lon="8.967655"><ele>365.0</ele><time>2026-03-28T09:13:45.228Z</time></trkpt><trkpt lat="45.7502467" lon="8.9676117"><ele>365.0</ele><time>2026-03-28T09:13:50.23Z</time></trkpt><trkpt lat="45.7503133" lon="8.9675733"><ele>365.0</ele><time>2026-03-28T09:13:58.228Z</time></trkpt><trkpt lat="45.7503883" lon="8.9675633"><ele>365.0</ele><time>2026-03-28T09:14:07.229Z</time></trkpt><trkpt lat="45.750455" lon="8.9675483"><ele>365.00000000000006</ele><time>2026-03-28T09:14:16.228Z</time></trkpt><trkpt lat="45.7505133" lon="8.9675117"><ele>365.0</ele><time>2026-03-28T09:14:23.232Z</time></trkpt><trkpt lat="45.7505833" lon="8.96749"><ele>367.42857142857144</ele><time>2026-03-28T09:14:29.229Z</time></trkpt><trkpt lat="45.7506517" lon="8.9674583"><ele>369.8571428571429</ele><time>2026-03-28T09:14:33.229Z</time></trkpt><trkpt lat="45.75072" lon="8.96744"><ele>372.28571428571433</ele><time>2026-03-28T09:14:38.229Z</time></trkpt><trkpt lat="45.7507933" lon="8.967425"><ele>374.7142857142857</ele><time>2026-03-28T09:14:45.23Z</time></trkpt><trkpt lat="45.75086" lon="8.9674017"><ele>377.1428571428571</ele><time>2026-03-28T09:14:50.228Z</time></trkpt><trkpt lat="45.750925" lon="8.96738"><ele>379.5714285714286</ele><time>2026-03-28T09:14:55.229Z</time></trkpt><trkpt lat="45.7509917" lon="8.9673667"><ele>382.0</ele><time>2026-03-28T09:15:00.228Z</time></trkpt><trkpt lat="45.751055" lon="8.967355"><ele>382.8571428571429</ele><time>2026-03-28T09:15:04.229Z</time></trkpt><trkpt lat="45.7511117" lon="8.967315"><ele>383.71428571428567</ele><time>2026-03-28T09:15:09.229Z</time></trkpt><trkpt lat="45.751164" lon="8.9672497"><ele>384.57142857142856</ele><time>2026-03-28T09:15:16.29Z</time></trkpt><trkpt lat="45.7512073" lon="8.967169"><ele>385.42857142857144</ele><time>2026-03-28T09:15:25.319Z</time></trkpt><trkpt lat="45.7512598" lon="8.9670906"><ele>386.28571428571433</ele><time>2026-03-28T09:15:31.303Z</time></trkpt><trkpt lat="45.7513228" lon="8.9670271"><ele>387.1428571428571</ele><time>2026-03-28T09:15:36.343Z</time></trkpt><trkpt lat="45.7513707" lon="8.9669444"><ele>388.0</ele><time>2026-03-28T09:15:40.324Z</time></trkpt><trkpt lat="45.7514173" lon="8.9668717"><ele>388.0</ele><time>2026-03-28T09:15:44.257Z</time></trkpt><trkpt lat="45.7514637" lon="8.9667984"><ele>388.0</ele><time>2026-03-28T09:15:48.342Z</time></trkpt><trkpt lat="45.7515097" lon="8.9667307"><ele>388.0</ele><time>2026-03-28T09:15:53.369Z</time></trkpt><trkpt lat="45.7515728" lon="8.9666635"><ele>388.0</ele><time>2026-03-28T09:15:58.285Z</time></trkpt><trkpt lat="45.7516368" lon="8.9666252"><ele>388.0</ele><time>2026-03-28T09:16:02.305Z</time></trkpt><trkpt lat="45.7516794" lon="8.9665549"><ele>388.0</ele><time>2026-03-28T09:16:06.263Z</time></trkpt><trkpt lat="45.7517304" lon="8.9664628"><ele>388.0</ele><time>2026-03-28T09:16:10.341Z</time></trkpt><trkpt lat="45.7517948" lon="8.9663975"><ele>388.2857142857143</ele><time>2026-03-28T09:16:13.298Z</time></trkpt><trkpt lat="45.7518435" lon="8.9663385"><ele>388.5714285714286</ele><time>2026-03-28T09:16:17.288Z</time></trkpt><trkpt lat="45.7519085" lon="8.9662694"><ele>388.8571428571429</ele><time>2026-03-28T09:16:22.327Z</time></trkpt><trkpt lat="45.7519715" lon="8.9662438"><ele>389.1428571428571</ele><time>2026-03-28T09:16:26.317Z</time></trkpt><trkpt lat="45.7520337" lon="8.9662238"><ele>389.42857142857144</ele><time>2026-03-28T09:16:30.201Z</time></trkpt><trkpt lat="45.7521071" lon="8.9662141"><ele>389.7142857142857</ele><time>2026-03-28T09:16:34.296Z</time></trkpt><trkpt lat="45.7521751" lon="8.9662166"><ele>390.0</ele><time>2026-03-28T09:16:38.345Z</time></trkpt><trkpt lat="45.7522384" lon="8.9662168"><ele>390.42857142857144</ele><time>2026-03-28T09:16:42.218Z</time></trkpt><trkpt lat="45.7523024" lon="8.9662077"><ele>390.85714285714283</ele><time>2026-03-28T09:16:47.124Z</time></trkpt><trkpt lat="45.7523757" lon="8.9661864"><ele>391.28571428571433</ele><time>2026-03-28T09:16:51.994Z</time></trkpt><trkpt lat="45.7524418" lon="8.9661349"><ele>391.7142857142857</ele><time>2026-03-28T09:16:55.858Z</time></trkpt><trkpt lat="45.7524978" lon="8.9660766"><ele>392.14285714285717</ele><time>2026-03-28T09:17:00.783Z</time></trkpt><trkpt lat="45.7525583" lon="8.9660141"><ele>392.5714285714286</ele><time>2026-03-28T09:17:05.678Z</time></trkpt><trkpt lat="45.7526181" lon="8.9659454"><ele>393.0</ele><time>2026-03-28T09:17:11.045Z</time></trkpt><trkpt lat="45.752668" lon="8.965885"><ele>393.00000000000006</ele><time>2026-03-28T09:17:14.984Z</time></trkpt><trkpt lat="45.7527055" lon="8.9658087"><ele>393.0</ele><time>2026-03-28T09:17:19.918Z</time></trkpt><trkpt lat="45.7527358" lon="8.9657184"><ele>393.0</ele><time>2026-03-28T09:17:25.245Z</time></trkpt><trkpt lat="45.7527438" lon="8.9656264"><ele>393.0</ele><time>2026-03-28T09:17:31.018Z</time></trkpt><trkpt lat="45.7527711" lon="8.9655285"><ele>393.0</ele><time>2026-03-28T09:17:35.293Z</time></trkpt><trkpt lat="45.7528147" lon="8.9654306"><ele>393.00000000000006</ele><time>2026-03-28T09:17:38.32Z</time></trkpt><trkpt lat="45.7528436" lon="8.965329"><ele>393.0</ele><time>2026-03-28T09:17:41.277Z</time></trkpt><trkpt lat="45.7528907" lon="8.9652593"><ele>392.7142857142857</ele><time>2026-03-28T09:17:45.266Z</time></trkpt><trkpt lat="45.7529377" lon="8.9651821"><ele>392.42857142857144</ele><time>2026-03-28T09:17:49.256Z</time></trkpt><trkpt lat="45.7529903" lon="8.9651041"><ele>392.1428571428571</ele><time>2026-03-28T09:17:53.245Z</time></trkpt><trkpt lat="45.7530432" lon="8.9650435"><ele>391.8571428571429</ele><time>2026-03-28T09:17:57.322Z</time></trkpt><trkpt lat="45.7531016" lon="8.964983"><ele>391.57142857142856</ele><time>2026-03-28T09:18:02.274Z</time></trkpt><trkpt lat="45.7531626" lon="8.9649304"><ele>391.2857142857143</ele><time>2026-03-28T09:18:07.314Z</time></trkpt><trkpt lat="45.7532218" lon="8.9648779"><ele>391.0</ele><time>2026-03-28T09:18:12.248Z</time></trkpt><trkpt lat="45.7532792" lon="8.9648298"><ele>390.85714285714283</ele><time>2026-03-28T09:18:16.238Z</time></trkpt><trkpt lat="45.7533491" lon="8.9647895"><ele>390.7142857142857</ele><time>2026-03-28T09:18:20.324Z</time></trkpt><trkpt lat="45.7534138" lon="8.9647376"><ele>390.57142857142856</ele><time>2026-03-28T09:18:24.321Z</time></trkpt><trkpt lat="45.7534784" lon="8.9646721"><ele>390.42857142857144</ele><time>2026-03-28T09:18:29.256Z</time></trkpt><trkpt lat="45.7535429" lon="8.9646185"><ele>390.2857142857143</ele><time>2026-03-28T09:18:34.325Z</time></trkpt><trkpt lat="45.7536098" lon="8.9645809"><ele>390.1428571428571</ele><time>2026-03-28T09:18:39.32Z</time></trkpt><trkpt lat="45.7536678" lon="8.964531"><ele>390.0</ele><time>2026-03-28T09:18:43.324Z</time></trkpt><trkpt lat="45.7537283" lon="8.964503"><ele>389.7142857142857</ele><time>2026-03-28T09:18:46.225Z</time></trkpt><trkpt lat="45.7538106" lon="8.9644759"><ele>389.42857142857144</ele><time>2026-03-28T09:18:50.322Z</time></trkpt><trkpt lat="45.7538766" lon="8.964444"><ele>389.1428571428571</ele><time>2026-03-28T09:18:54.282Z</time></trkpt><trkpt lat="45.7539388" lon="8.9645009"><ele>388.8571428571429</ele><time>2026-03-28T09:19:00.332Z</time></trkpt><trkpt lat="45.7539639" lon="8.9645842"><ele>388.5714285714286</ele><time>2026-03-28T09:19:03.271Z</time></trkpt><trkpt lat="45.7540012" lon="8.9646703"><ele>388.2857142857143</ele><time>2026-03-28T09:19:08.311Z</time></trkpt><trkpt lat="45.7540211" lon="8.9647629"><ele>388.0</ele><time>2026-03-28T09:19:13.245Z</time></trkpt><trkpt lat="45.7540272" lon="8.9648665"><ele>388.0</ele><time>2026-03-28T09:19:17.338Z</time></trkpt><trkpt lat="45.7540336" lon="8.9649722"><ele>388.0</ele><time>2026-03-28T09:19:21.339Z</time></trkpt><trkpt lat="45.7540359" lon="8.9650668"><ele>388.0</ele><time>2026-03-28T09:19:25.318Z</time></trkpt><trkpt lat="45.754055" lon="8.9651748"><ele>388.0</ele><time>2026-03-28T09:19:30.252Z</time></trkpt><trkpt lat="45.7540712" lon="8.9652817"><ele>388.0</ele><time>2026-03-28T09:19:36.342Z</time></trkpt><trkpt lat="45.7540723" lon="8.9653891"><ele>388.0</ele><time>2026-03-28T09:19:41.276Z</time></trkpt><trkpt lat="45.7540949" lon="8.9654845"><ele>388.0</ele><time>2026-03-28T09:19:46.315Z</time></trkpt><trkpt lat="45.7541315" lon="8.9655807"><ele>387.0</ele><time>2026-03-28T09:19:52.299Z</time></trkpt><trkpt lat="45.7541601" lon="8.9656653"><ele>386.0</ele><time>2026-03-28T09:19:58.18Z</time></trkpt><trkpt lat="45.7541704" lon="8.9657693"><ele>385.0</ele><time>2026-03-28T09:20:04.241Z</time></trkpt><trkpt lat="45.7541853" lon="8.9658579"><ele>384.0</ele><time>2026-03-28T09:20:09.223Z</time></trkpt><trkpt lat="45.7542044" lon="8.9659499"><ele>383.0</ele><time>2026-03-28T09:20:13.184Z</time></trkpt><trkpt lat="45.754227" lon="8.9660412"><ele>382.0</ele><time>2026-03-28T09:20:18.299Z</time></trkpt><trkpt lat="45.7542336" lon="8.9661506"><ele>381.0</ele><time>2026-03-28T09:20:24.284Z</time></trkpt><trkpt lat="45.7542991" lon="8.9661728"><ele>381.0</ele><time>2026-03-28T09:20:35.343Z</time></trkpt><trkpt lat="45.7543378" lon="8.9660891"><ele>381.0</ele><time>2026-03-28T09:20:43.229Z</time></trkpt><trkpt lat="45.7543757" lon="8.9659963"><ele>381.0</ele><time>2026-03-28T09:20:49.323Z</time></trkpt><trkpt lat="45.754413" lon="8.9659137"><ele>381.0</ele><time>2026-03-28T09:20:54.267Z</time></trkpt><trkpt lat="45.754457" lon="8.965847"><ele>381.0</ele><time>2026-03-28T09:20:58.317Z</time></trkpt><trkpt lat="45.7545117" lon="8.9657664"><ele>381.0</ele><time>2026-03-28T09:21:02.248Z</time></trkpt><trkpt lat="45.7545579" lon="8.9657017"><ele>381.0</ele><time>2026-03-28T09:21:06.348Z</time></trkpt><trkpt lat="45.7546108" lon="8.9656482"><ele>381.2857142857143</ele><time>2026-03-28T09:21:11.373Z</time></trkpt><trkpt lat="45.754665" lon="8.9655954"><ele>381.5714285714286</ele><time>2026-03-28T09:21:16.248Z</time></trkpt><trkpt lat="45.7547115" lon="8.9655159"><ele>381.8571428571429</ele><time>2026-03-28T09:21:20.218Z</time></trkpt><trkpt lat="45.7547743" lon="8.9654464"><ele>382.1428571428571</ele><time>2026-03-28T09:21:23.257Z</time></trkpt><trkpt lat="45.7548302" lon="8.9653789"><ele>382.42857142857144</ele><time>2026-03-28T09:21:27.238Z</time></trkpt><trkpt lat="45.7548798" lon="8.9653175"><ele>382.7142857142857</ele><time>2026-03-28T09:21:32.245Z</time></trkpt><trkpt lat="45.7549246" lon="8.9652303"><ele>383.0</ele><time>2026-03-28T09:21:37.108Z</time></trkpt><trkpt lat="45.7549817" lon="8.9651859"><ele>383.0</ele><time>2026-03-28T09:21:41.157Z</time></trkpt><trkpt lat="45.7550451" lon="8.9652134"><ele>383.0</ele><time>2026-03-28T09:21:48.309Z</time></trkpt><trkpt lat="45.7551005" lon="8.9651301"><ele>383.0</ele><time>2026-03-28T09:21:51.328Z</time></trkpt><trkpt lat="45.7551642" lon="8.9651355"><ele>383.0</ele><time>2026-03-28T09:21:56.208Z</time></trkpt><trkpt lat="45.7552243" lon="8.9651683"><ele>383.0</ele><time>2026-03-28T09:22:01.328Z</time></trkpt><trkpt lat="45.7552837" lon="8.9652041"><ele>383.0</ele><time>2026-03-28T09:22:07.312Z</time></trkpt><trkpt lat="45.75534" lon="8.9652633"><ele>383.0</ele><time>2026-03-28T09:22:13.231Z</time></trkpt><trkpt lat="45.7553967" lon="8.9653067"><ele>383.1428571428571</ele><time>2026-03-28T09:22:19.229Z</time></trkpt><trkpt lat="45.7554583" lon="8.96533"><ele>383.2857142857143</ele><time>2026-03-28T09:22:25.229Z</time></trkpt><trkpt lat="45.7555267" lon="8.96534"><ele>383.42857142857144</ele><time>2026-03-28T09:22:31.229Z</time></trkpt><trkpt lat="45.7555933" lon="8.965325"><ele>383.57142857142856</ele><time>2026-03-28T09:22:36.23Z</time></trkpt><trkpt lat="45.75566" lon="8.965315"><ele>383.7142857142857</ele><time>2026-03-28T09:22:41.23Z</time></trkpt><trkpt lat="45.7557367" lon="8.965295"><ele>383.85714285714283</ele><time>2026-03-28T09:22:46.23Z</time></trkpt><trkpt lat="45.7558017" lon="8.9652983"><ele>384.0</ele><time>2026-03-28T09:22:50.23Z</time></trkpt><trkpt lat="45.7558683" lon="8.965295"><ele>383.99999999999994</ele><time>2026-03-28T09:22:54.23Z</time></trkpt><trkpt lat="45.75593" lon="8.9652483"><ele>384.0</ele><time>2026-03-28T09:23:00.229Z</time></trkpt><trkpt lat="45.7559964" lon="8.9651993"><ele>384.0</ele><time>2026-03-28T09:23:06.225Z</time></trkpt><trkpt lat="45.756046" lon="8.9651354"><ele>384.0</ele><time>2026-03-28T09:23:12.176Z</time></trkpt><trkpt lat="45.7560977" lon="8.9650781"><ele>384.0</ele><time>2026-03-28T09:23:17.198Z</time></trkpt><trkpt lat="45.7561465" lon="8.9650004"><ele>383.99999999999994</ele><time>2026-03-28T09:23:22.272Z</time></trkpt><trkpt lat="45.7561999" lon="8.9649437"><ele>384.0</ele><time>2026-03-28T09:23:26.261Z</time></trkpt><trkpt lat="45.7562499" lon="8.9648687"><ele>384.4285714285714</ele><time>2026-03-28T09:23:31.3Z</time></trkpt><trkpt lat="45.7562988" lon="8.9648024"><ele>384.85714285714283</ele><time>2026-03-28T09:23:35.29Z</time></trkpt><trkpt lat="45.7563526" lon="8.9647496"><ele>385.2857142857143</ele><time>2026-03-28T09:23:39.278Z</time></trkpt><trkpt lat="45.7564156" lon="8.9647127"><ele>385.71428571428567</ele><time>2026-03-28T09:23:43.269Z</time></trkpt><trkpt lat="45.7564817" lon="8.9646758"><ele>386.14285714285717</ele><time>2026-03-28T09:23:48.168Z</time></trkpt><trkpt lat="45.7565481" lon="8.9646356"><ele>386.57142857142856</ele><time>2026-03-28T09:23:53.18Z</time></trkpt><trkpt lat="45.7566095" lon="8.9645754"><ele>387.0</ele><time>2026-03-28T09:23:57.297Z</time></trkpt><trkpt lat="45.7566749" lon="8.9645839"><ele>387.0</ele><time>2026-03-28T09:24:01.299Z</time></trkpt><trkpt lat="45.756737" lon="8.9646211"><ele>387.0</ele><time>2026-03-28T09:24:06.26Z</time></trkpt><trkpt lat="45.7567907" lon="8.9646965"><ele>387.0</ele><time>2026-03-28T09:24:10.25Z</time></trkpt><trkpt lat="45.7568301" lon="8.9647711"><ele>387.0</ele><time>2026-03-28T09:24:13.294Z</time></trkpt><trkpt lat="45.7568738" lon="8.96484"><ele>387.0</ele><time>2026-03-28T09:24:18.221Z</time></trkpt><trkpt lat="45.7569217" lon="8.964945"><ele>387.0</ele><time>2026-03-28T09:24:23.229Z</time></trkpt><trkpt lat="45.75694" lon="8.9650417"><ele>387.0</ele><time>2026-03-28T09:24:27.23Z</time></trkpt><trkpt lat="45.7569533" lon="8.9651417"><ele>387.42857142857144</ele><time>2026-03-28T09:24:31.229Z</time></trkpt><trkpt lat="45.7569879" lon="8.9652238"><ele>387.8571428571429</ele><time>2026-03-28T09:24:36.286Z</time></trkpt><trkpt lat="45.7570446" lon="8.9652794"><ele>388.2857142857143</ele><time>2026-03-28T09:24:40.276Z</time></trkpt><trkpt lat="45.7571021" lon="8.9653296"><ele>388.7142857142857</ele><time>2026-03-28T09:24:45.21Z</time></trkpt><trkpt lat="45.7571609" lon="8.9653687"><ele>389.1428571428571</ele><time>2026-03-28T09:24:52.244Z</time></trkpt><trkpt lat="45.7572298" lon="8.9653939"><ele>389.57142857142856</ele><time>2026-03-28T09:24:58.333Z</time></trkpt><trkpt lat="45.7572949" lon="8.9653938"><ele>390.0</ele><time>2026-03-28T09:25:05.13Z</time></trkpt><trkpt lat="45.7573615" lon="8.9653993"><ele>390.0</ele><time>2026-03-28T09:25:12.148Z</time></trkpt><trkpt lat="45.7574342" lon="8.9653714"><ele>390.0</ele><time>2026-03-28T09:25:19.169Z</time></trkpt><trkpt lat="45.7574931" lon="8.9653222"><ele>390.0</ele><time>2026-03-28T09:25:24.157Z</time></trkpt><trkpt lat="45.7575483" lon="8.9652713"><ele>390.0</ele><time>2026-03-28T09:25:28.275Z</time></trkpt><trkpt lat="45.7576244" lon="8.9652367"><ele>390.0</ele><time>2026-03-28T09:25:32.398Z</time></trkpt><trkpt lat="45.7576902" lon="8.9652352"><ele>390.0</ele><time>2026-03-28T09:25:37.542Z</time></trkpt><trkpt lat="45.7577513" lon="8.9652627"><ele>390.0</ele><time>2026-03-28T09:25:44.706Z</time></trkpt><trkpt lat="45.7577614" lon="8.9653674"><ele>390.0</ele><time>2026-03-28T09:25:51.246Z</time></trkpt><trkpt lat="45.7577499" lon="8.9654688"><ele>390.0</ele><time>2026-03-28T09:25:56.284Z</time></trkpt><trkpt lat="45.7577231" lon="8.965569"><ele>390.0</ele><time>2026-03-28T09:26:01.26Z</time></trkpt><trkpt lat="45.7577081" lon="8.9656626"><ele>390.0</ele><time>2026-03-28T09:26:06.259Z</time></trkpt><trkpt lat="45.7576959" lon="8.9657705"><ele>390.0</ele><time>2026-03-28T09:26:12.243Z</time></trkpt><trkpt lat="45.7576881" lon="8.965879"><ele>390.0</ele><time>2026-03-28T09:26:17.282Z</time></trkpt><trkpt lat="45.757675" lon="8.9659853"><ele>390.0</ele><time>2026-03-28T09:26:21.271Z</time></trkpt><trkpt lat="45.7576794" lon="8.9660875"><ele>389.0</ele><time>2026-03-28T09:26:25.261Z</time></trkpt><trkpt lat="45.7576884" lon="8.9661996"><ele>388.0</ele><time>2026-03-28T09:26:30.3Z</time></trkpt><trkpt lat="45.7576926" lon="8.9663009"><ele>387.0</ele><time>2026-03-28T09:26:35.309Z</time></trkpt><trkpt lat="45.7576489" lon="8.9663962"><ele>386.0</ele><time>2026-03-28T09:26:40.318Z</time></trkpt><trkpt lat="45.7576123" lon="8.9664766"><ele>385.0</ele><time>2026-03-28T09:26:44.289Z</time></trkpt><trkpt lat="45.7575545" lon="8.9665505"><ele>384.0</ele><time>2026-03-28T09:26:49.205Z</time></trkpt><trkpt lat="45.7574952" lon="8.966609"><ele>383.0</ele><time>2026-03-28T09:26:53.102Z</time></trkpt><trkpt lat="45.7574325" lon="8.966659"><ele>382.57142857142856</ele><time>2026-03-28T09:26:56.989Z</time></trkpt><trkpt lat="45.7573709" lon="8.966723"><ele>382.1428571428571</ele><time>2026-03-28T09:27:02.014Z</time></trkpt><trkpt lat="45.7574057" lon="8.9668143"><ele>381.7142857142857</ele><time>2026-03-28T09:27:09.219Z</time></trkpt><trkpt lat="45.7574768" lon="8.9668165"><ele>381.2857142857143</ele><time>2026-03-28T09:27:15.234Z</time></trkpt><trkpt lat="45.7575343" lon="8.9668661"><ele>380.8571428571429</ele><time>2026-03-28T09:27:19.33Z</time></trkpt><trkpt lat="45.7575873" lon="8.9669377"><ele>380.42857142857144</ele><time>2026-03-28T09:27:25.34Z</time></trkpt><trkpt lat="45.757635" lon="8.9670124"><ele>380.0</ele><time>2026-03-28T09:27:30.303Z</time></trkpt><trkpt lat="45.7576453" lon="8.9671015"><ele>380.0</ele><time>2026-03-28T09:27:34.26Z</time></trkpt><trkpt lat="45.7576604" lon="8.967221"><ele>380.0</ele><time>2026-03-28T09:27:39.208Z</time></trkpt><trkpt lat="45.7576784" lon="8.9673113"><ele>380.0</ele><time>2026-03-28T09:27:43.148Z</time></trkpt><trkpt lat="45.7576986" lon="8.9674127"><ele>380.0</ele><time>2026-03-28T09:27:47.018Z</time></trkpt><trkpt lat="45.7576951" lon="8.9675154"><ele>380.0</ele><time>2026-03-28T09:27:50.887Z</time></trkpt><trkpt lat="45.7576905" lon="8.9676074"><ele>380.0</ele><time>2026-03-28T09:27:54.768Z</time></trkpt><trkpt lat="45.757681" lon="8.9677081"><ele>380.0</ele><time>2026-03-28T09:27:59.606Z</time></trkpt><trkpt lat="45.7576731" lon="8.9678012"><ele>379.7142857142857</ele><time>2026-03-28T09:28:03.469Z</time></trkpt><trkpt lat="45.7576733" lon="8.9678973"><ele>379.42857142857144</ele><time>2026-03-28T09:28:07.358Z</time></trkpt><trkpt lat="45.7576756" lon="8.9680032"><ele>379.1428571428571</ele><time>2026-03-28T09:28:12.189Z</time></trkpt><trkpt lat="45.7576881" lon="8.9680957"><ele>378.8571428571429</ele><time>2026-03-28T09:28:17.095Z</time></trkpt><trkpt lat="45.7576951" lon="8.9681864"><ele>378.57142857142856</ele><time>2026-03-28T09:28:20.928Z</time></trkpt><trkpt lat="45.7577297" lon="8.9682682"><ele>378.2857142857143</ele><time>2026-03-28T09:28:25.259Z</time></trkpt><trkpt lat="45.7577219" lon="8.9683738"><ele>378.0</ele><time>2026-03-28T09:28:31.258Z</time></trkpt><trkpt lat="45.7577611" lon="8.9684456"><ele>377.2857142857143</ele><time>2026-03-28T09:28:37.186Z</time></trkpt><trkpt lat="45.7578326" lon="8.9684697"><ele>376.57142857142856</ele><time>2026-03-28T09:28:43.877Z</time></trkpt><trkpt lat="45.7579088" lon="8.9684862"><ele>375.8571428571429</ele><time>2026-03-28T09:28:47.788Z</time></trkpt><trkpt lat="45.7579752" lon="8.9685071"><ele>375.1428571428571</ele><time>2026-03-28T09:28:50.709Z</time></trkpt><trkpt lat="45.7580416" lon="8.9685259"><ele>374.42857142857144</ele><time>2026-03-28T09:28:54.137Z</time></trkpt><trkpt lat="45.7581084" lon="8.9685433"><ele>373.7142857142857</ele><time>2026-03-28T09:28:58.018Z</time></trkpt><trkpt lat="45.7581787" lon="8.9685534"><ele>373.0</ele><time>2026-03-28T09:29:02.907Z</time></trkpt><trkpt lat="45.7582424" lon="8.9685479"><ele>373.0</ele><time>2026-03-28T09:29:06.819Z</time></trkpt><trkpt lat="45.7582684" lon="8.9684645"><ele>373.0</ele><time>2026-03-28T09:29:16.33Z</time></trkpt><trkpt lat="45.7582475" lon="8.968369"><ele>373.0</ele><time>2026-03-28T09:29:23.315Z</time></trkpt><trkpt lat="45.7582633" lon="8.9684683"><ele>373.0</ele><time>2026-03-28T09:32:26.229Z</time></trkpt><trkpt lat="45.7582997" lon="8.9685431"><ele>373.0</ele><time>2026-03-28T09:32:32.122Z</time></trkpt><trkpt lat="45.7583662" lon="8.9685688"><ele>373.0</ele><time>2026-03-28T09:32:35.945Z</time></trkpt><trkpt lat="45.758438" lon="8.9685602"><ele>373.0</ele><time>2026-03-28T09:32:40.223Z</time></trkpt><trkpt lat="45.7585031" lon="8.9685509"><ele>373.7142857142857</ele><time>2026-03-28T09:32:44.152Z</time></trkpt><trkpt lat="45.7585768" lon="8.9685292"><ele>374.42857142857144</ele><time>2026-03-28T09:32:48.246Z</time></trkpt><trkpt lat="45.7586548" lon="8.9685002"><ele>375.1428571428571</ele><time>2026-03-28T09:32:52.288Z</time></trkpt><trkpt lat="45.7587232" lon="8.9684803"><ele>375.8571428571429</ele><time>2026-03-28T09:32:56.113Z</time></trkpt><trkpt lat="45.7587882" lon="8.9684601"><ele>376.57142857142856</ele><time>2026-03-28T09:33:00.229Z</time></trkpt><trkpt lat="45.7588529" lon="8.968451"><ele>377.2857142857143</ele><time>2026-03-28T09:33:04.308Z</time></trkpt><trkpt lat="45.7589273" lon="8.9684341"><ele>378.0</ele><time>2026-03-28T09:33:09.243Z</time></trkpt><trkpt lat="45.7589979" lon="8.9683882"><ele>378.42857142857144</ele><time>2026-03-28T09:33:14.277Z</time></trkpt><trkpt lat="45.7590546" lon="8.9683256"><ele>378.8571428571429</ele><time>2026-03-28T09:33:19.322Z</time></trkpt><trkpt lat="45.7591182" lon="8.9682705"><ele>379.2857142857143</ele><time>2026-03-28T09:33:24.245Z</time></trkpt><trkpt lat="45.7591899" lon="8.9682466"><ele>379.7142857142857</ele><time>2026-03-28T09:33:29.296Z</time></trkpt><trkpt lat="45.7592543" lon="8.9682254"><ele>380.14285714285717</ele><time>2026-03-28T09:33:33.282Z</time></trkpt><trkpt lat="45.7593172" lon="8.9682051"><ele>380.57142857142856</ele><time>2026-03-28T09:33:37.143Z</time></trkpt><trkpt lat="45.759377" lon="8.968173"><ele>381.0</ele><time>2026-03-28T09:33:41.278Z</time></trkpt><trkpt lat="45.7594431" lon="8.9681299"><ele>385.0</ele><time>2026-03-28T09:33:47.249Z</time></trkpt></trkseg></trk></gpx>